Wetterdaten: Sonntag, 29.12.2019
Datum Zeit Temp. Aussen Temp. o. S. Temp +5cm Feuchte Auss Luftdruck Regen Sonnenschein Regendauer Solar Windben Empfang
29.12.2019 00:00 0,9 C 0,6 C -0,6 C 89 % 1039,6 hPa 0,0 l/m 0 min 0 min 0 W/m 6,4 km/h (2 Bft) 94,00 %
29.12.2019 00:02 0,9 C 0,6 C -0,6 C 89 % 1039,7 hPa 0,0 l/m 0 min 0 min 0 W/m 12,9 km/h (3 Bft) 94,59 %
29.12.2019 00:04 0,9 C 0,6 C -0,6 C 89 % 1039,7 hPa 0,0 l/m 0 min 0 min 0 W/m 3,2 km/h (1 Bft) 95,92 %
29.12.2019 00:08 0,9 C 0,6 C -0,6 C 89 % 1039,7 hPa 0,0 l/m 0 min 0 min 0 W/m 12,9 km/h (3 Bft) 94,68 %
29.12.2019 00:10 0,9 C 0,6 C -0,6 C 89 % 1039,6 hPa 0,0 l/m 0 min 0 min 0 W/m 3,2 km/h (1 Bft) 96,23 %
29.12.2019 00:12 0,9 C 0,0 C -0,6 C 89 % 1039,6 hPa 0,0 l/m 0 min 0 min 0 W/m 0,0 km/h (0 Bft) 92,11 %
29.12.2019 00:14 0,9 C 0,0 C -0,6 C 89 % 1039,6 hPa 0,0 l/m 0 min 0 min 0 W/m 0,0 km/h (0 Bft) 95,92 %
29.12.2019 00:16 0,9 C 0,0 C -0,6 C 89 % 1039,6 hPa 0,0 l/m 0 min 0 min 0 W/m 0,0 km/h (0 Bft) 95,74 %
29.12.2019 00:18 0,9 C 0,0 C -0,6 C 89 % 1039,6 hPa 0,0 l/m 0 min 0 min 0 W/m 3,2 km/h (1 Bft) 94,34 %
29.12.2019 00:20 0,9 C 0,0 C -0,6 C 89 % 1039,6 hPa 0,0 l/m 0 min 0 min 0 W/m 3,2 km/h (1 Bft) 97,87 %
29.12.2019 00:22 0,9 C 0,0 C -0,6 C 89 % 1039,6 hPa 0,0 l/m 0 min 0 min 0 W/m 12,9 km/h (3 Bft) 97,37 %
29.12.2019 00:24 0,9 C 0,0 C -0,6 C 89 % 1039,5 hPa 0,0 l/m 0 min 0 min 0 W/m 16,1 km/h (3 Bft) 97,96 %
29.12.2019 00:26 0,9 C 0,0 C -0,6 C 89 % 1039,5 hPa 0,0 l/m 0 min 0 min 0 W/m 0,0 km/h (0 Bft) 95,74 %
29.12.2019 00:28 0,9 C 0,0 C -0,6 C 89 % 1039,5 hPa 0,0 l/m 0 min 0 min 0 W/m 3,2 km/h (1 Bft) 98,11 %
29.12.2019 00:30 0,8 C 0,0 C -0,6 C 89 % 1039,6 hPa 0,0 l/m 0 min 0 min 0 W/m 12,9 km/h (3 Bft) 97,37 %
29.12.2019 00:32 0,8 C 0,0 C -0,6 C 89 % 1039,5 hPa 0,0 l/m 0 min 0 min 0 W/m 6,4 km/h (2 Bft) 98,00 %
29.12.2019 00:34 0,8 C 0,0 C -0,6 C 89 % 1039,6 hPa 0,0 l/m 0 min 0 min 0 W/m 12,9 km/h (3 Bft) 97,87 %
29.12.2019 00:36 0,8 C 0,0 C -0,6 C 89 % 1039,6 hPa 0,0 l/m 0 min 0 min 0 W/m 12,9 km/h (3 Bft) 94,34 %
29.12.2019 00:38 0,8 C 0,0 C -0,6 C 89 % 1039,6 hPa 0,0 l/m 0 min 0 min 0 W/m 6,4 km/h (2 Bft) 100,00 %
29.12.2019 00:40 0,8 C 0,0 C -0,6 C 89 % 1039,7 hPa 0,0 l/m 0 min 0 min 0 W/m 12,9 km/h (3 Bft) 95,92 %
29.12.2019 00:42 0,8 C 0,0 C -0,6 C 89 % 1039,6 hPa 0,0 l/m 0 min 0 min 0 W/m 3,2 km/h (1 Bft) 97,87 %
29.12.2019 00:44 0,8 C 0,0 C -0,6 C 89 % 1039,7 hPa 0,0 l/m 0 min 0 min 0 W/m 3,2 km/h (1 Bft) 94,34 %
29.12.2019 00:46 0,8 C 0,0 C -0,6 C 89 % 1039,7 hPa 0,0 l/m 0 min 0 min 0 W/m 3,2 km/h (1 Bft) 97,37 %
29.12.2019 00:48 0,7 C 0,0 C -0,6 C 89 % 1039,6 hPa 0,0 l/m 0 min 0 min 0 W/m 12,9 km/h (3 Bft) 95,92 %
29.12.2019 00:50 0,7 C 0,0 C -0,6 C 89 % 1039,6 hPa 0,0 l/m 0 min 0 min 0 W/m 6,4 km/h (2 Bft) 100,00 %
29.12.2019 00:52 0,7 C 0,0 C -0,6 C 89 % 1039,6 hPa 0,0 l/m 0 min 0 min 0 W/m 6,4 km/h (2 Bft) 100,00 %
29.12.2019 00:54 0,7 C 0,0 C -0,6 C 89 % 1039,6 hPa 0,0 l/m 0 min 0 min 0 W/m 0,0 km/h (0 Bft) 100,00 %
29.12.2019 00:56 0,7 C 0,0 C -0,6 C 89 % 1039,7 hPa 0,0 l/m 0 min 0 min 0 W/m 0,0 km/h (0 Bft) 100,00 %
29.12.2019 00:58 0,7 C 0,0 C -0,6 C 89 % 1039,7 hPa 0,0 l/m 0 min 0 min 0 W/m 0,0 km/h (0 Bft) 100,00 %
29.12.2019 01:00 0,7 C 0,0 C -0,6 C 89 % 1039,8 hPa 0,0 l/m 0 min 0 min 0 W/m 0,0 km/h (0 Bft) 100,00 %
29.12.2019 01:02 0,6 C 0,0 C -0,6 C 89 % 1039,8 hPa 0,0 l/m 0 min 0 min 0 W/m 3,2 km/h (1 Bft) 100,00 %
29.12.2019 01:04 0,6 C 0,0 C -0,6 C 89 % 1039,8 hPa 0,0 l/m 0 min 0 min 0 W/m 6,4 km/h (2 Bft) 100,00 %
29.12.2019 01:06 0,6 C 0,0 C -0,6 C 89 % 1039,7 hPa 0,0 l/m 0 min 0 min 0 W/m 0,0 km/h (0 Bft) 100,00 %
29.12.2019 01:08 0,6 C 0,0 C -0,6 C 89 % 1039,7 hPa 0,0 l/m 0 min 0 min 0 W/m 6,4 km/h (2 Bft) 100,00 %
29.12.2019 01:10 0,6 C 0,0 C -0,6 C 89 % 1039,6 hPa 0,0 l/m 0 min 0 min 0 W/m 12,9 km/h (3 Bft) 97,37 %
29.12.2019 01:12 0,6 C 0,0 C -0,6 C 89 % 1039,6 hPa 0,0 l/m 0 min 0 min 0 W/m 6,4 km/h (2 Bft) 100,00 %
29.12.2019 01:14 0,6 C 0,0 C -0,6 C 89 % 1039,6 hPa 0,0 l/m 0 min 0 min 0 W/m 6,4 km/h (2 Bft) 97,87 %
29.12.2019 01:16 0,6 C 0,0 C -0,6 C 89 % 1039,7 hPa 0,0 l/m 0 min 0 min 0 W/m 3,2 km/h (1 Bft) 98,11 %
29.12.2019 01:18 0,6 C 0,0 C -0,6 C 89 % 1039,6 hPa 0,0 l/m 0 min 0 min 0 W/m 0,0 km/h (0 Bft) 97,37 %
29.12.2019 01:20 0,6 C 0,0 C -0,6 C 89 % 1039,6 hPa 0,0 l/m 0 min 0 min 0 W/m 3,2 km/h (1 Bft) 98,00 %
29.12.2019 01:22 0,6 C 0,0 C -0,6 C 89 % 1039,6 hPa 0,0 l/m 0 min 0 min 0 W/m 6,4 km/h (2 Bft) 95,65 %
29.12.2019 01:24 0,6 C 0,0 C -0,6 C 89 % 1039,7 hPa 0,0 l/m 0 min 0 min 0 W/m 3,2 km/h (1 Bft) 96,30 %
29.12.2019 01:26 0,6 C 0,0 C -0,6 C 89 % 1039,7 hPa 0,0 l/m 0 min 0 min 0 W/m 3,2 km/h (1 Bft) 100,00 %
29.12.2019 01:28 0,6 C 0,0 C -0,6 C 89 % 1039,7 hPa 0,0 l/m 0 min 0 min 0 W/m 0,0 km/h (0 Bft) 97,96 %
29.12.2019 01:30 0,6 C 0,0 C -0,6 C 89 % 1039,7 hPa 0,0 l/m 0 min 0 min 0 W/m 3,2 km/h (1 Bft) 97,87 %
29.12.2019 01:32 0,6 C 0,0 C -0,6 C 89 % 1039,7 hPa 0,0 l/m 0 min 0 min 0 W/m 3,2 km/h (1 Bft) 95,65 %
29.12.2019 01:34 0,6 C 0,0 C -0,6 C 89 % 1039,7 hPa 0,0 l/m 0 min 0 min 0 W/m 12,9 km/h (3 Bft) 97,87 %
29.12.2019 01:36 0,6 C 0,0 C -0,6 C 89 % 1039,6 hPa 0,0 l/m 0 min 0 min 0 W/m 12,9 km/h (3 Bft) 98,15 %
29.12.2019 01:38 0,6 C 0,0 C -0,6 C 89 % 1039,6 hPa 0,0 l/m 0 min 0 min 0 W/m 0,0 km/h (0 Bft) 97,37 %
29.12.2019 01:40 0,6 C 0,0 C -0,6 C 89 % 1039,5 hPa 0,0 l/m 0 min 0 min 0 W/m 0,0 km/h (0 Bft) 95,92 %
29.12.2019 01:42 0,6 C 0,0 C -0,6 C 89 % 1039,5 hPa 0,0 l/m 0 min 0 min 0 W/m 12,9 km/h (3 Bft) 97,87 %
29.12.2019 01:44 0,6 C 0,0 C -0,6 C 89 % 1039,5 hPa 0,0 l/m 0 min 0 min 0 W/m 12,9 km/h (3 Bft) 97,83 %
29.12.2019 01:46 0,6 C 0,0 C -0,6 C 89 % 1039,4 hPa 0,0 l/m 0 min 0 min 0 W/m 12,9 km/h (3 Bft) 98,15 %
29.12.2019 01:48 0,6 C 0,0 C -0,6 C 89 % 1039,5 hPa 0,0 l/m 0 min 0 min 0 W/m 12,9 km/h (3 Bft) 97,83 %
29.12.2019 01:50 0,6 C 0,0 C -0,6 C 89 % 1039,5 hPa 0,0 l/m 0 min 0 min 0 W/m 16,1 km/h (3 Bft) 97,44 %
29.12.2019 01:52 0,6 C 0,0 C -0,6 C 89 % 1039,5 hPa 0,0 l/m 0 min 0 min 0 W/m 16,1 km/h (3 Bft) 97,96 %
29.12.2019 01:54 0,6 C 0,0 C -0,6 C 89 % 1039,4 hPa 0,0 l/m 0 min 0 min 0 W/m 6,4 km/h (2 Bft) 97,87 %
29.12.2019 01:56 0,6 C 0,0 C -0,6 C 89 % 1039,3 hPa 0,0 l/m 0 min 0 min 0 W/m 12,9 km/h (3 Bft) 98,11 %
29.12.2019 01:58 0,6 C 0,0 C -0,6 C 89 % 1039,3 hPa 0,0 l/m 0 min 0 min 0 W/m 19,3 km/h (3 Bft) 97,37 %
29.12.2019 02:00 0,6 C 0,0 C -0,6 C 89 % 1039,3 hPa 0,0 l/m 0 min 0 min 0 W/m 16,1 km/h (3 Bft) 97,96 %
29.12.2019 02:02 0,6 C 0,0 C -0,6 C 89 % 1039,3 hPa 0,0 l/m 0 min 0 min 0 W/m 0,0 km/h (0 Bft) 97,87 %
29.12.2019 02:04 0,6 C 0,0 C -0,6 C 89 % 1039,3 hPa 0,0 l/m 0 min 0 min 0 W/m 12,9 km/h (3 Bft) 98,11 %
29.12.2019 02:06 0,6 C 0,0 C -0,6 C 89 % 1039,3 hPa 0,0 l/m 0 min 0 min 0 W/m 16,1 km/h (3 Bft) 97,37 %
29.12.2019 02:08 0,6 C 0,0 C -0,6 C 89 % 1039,4 hPa 0,0 l/m 0 min 0 min 0 W/m 12,9 km/h (3 Bft) 97,96 %
29.12.2019 02:10 0,6 C 0,0 C -0,6 C 89 % 1039,4 hPa 0,0 l/m 0 min 0 min 0 W/m 9,7 km/h (2 Bft) 97,87 %
29.12.2019 02:12 0,6 C 0,0 C -0,6 C 89 % 1039,4 hPa 0,0 l/m 0 min 0 min 0 W/m 12,9 km/h (3 Bft) 97,87 %
29.12.2019 02:14 0,5 C 0,0 C -0,6 C 89 % 1039,3 hPa 0,0 l/m 0 min 0 min 0 W/m 9,7 km/h (2 Bft) 100,00 %
29.12.2019 02:16 0,5 C 0,0 C -0,6 C 89 % 1039,3 hPa 0,0 l/m 0 min 0 min 0 W/m 6,4 km/h (2 Bft) 100,00 %
29.12.2019 02:18 0,5 C 0,0 C -0,6 C 89 % 1039,3 hPa 0,0 l/m 0 min 0 min 0 W/m 0,0 km/h (0 Bft) 96,00 %
29.12.2019 02:20 0,5 C 0,0 C -1,1 C 89 % 1039,4 hPa 0,0 l/m 0 min 0 min 0 W/m 0,0 km/h (0 Bft) 95,65 %
29.12.2019 02:22 0,5 C -0,6 C -1,1 C 89 % 1039,4 hPa 0,0 l/m 0 min 0 min 0 W/m 0,0 km/h (0 Bft) 96,30 %
29.12.2019 02:24 0,5 C 0,0 C -1,1 C 89 % 1039,3 hPa 0,0 l/m 0 min 0 min 0 W/m 19,3 km/h (3 Bft) 97,37 %
29.12.2019 02:26 0,5 C 0,0 C -1,1 C 89 % 1039,3 hPa 0,0 l/m 0 min 0 min 0 W/m 16,1 km/h (3 Bft) 97,83 %
29.12.2019 02:28 0,4 C 0,0 C -1,1 C 89 % 1039,4 hPa 0,0 l/m 0 min 0 min 0 W/m 12,9 km/h (3 Bft) 97,87 %
29.12.2019 02:30 0,4 C -0,6 C -1,1 C 89 % 1039,4 hPa 0,0 l/m 0 min 0 min 0 W/m 12,9 km/h (3 Bft) 97,96 %
29.12.2019 02:32 0,4 C -0,6 C -1,1 C 89 % 1039,4 hPa 0,0 l/m 0 min 0 min 0 W/m 6,4 km/h (2 Bft) 97,87 %
29.12.2019 02:34 0,4 C 0,0 C -1,1 C 89 % 1039,5 hPa 0,0 l/m 0 min 0 min 0 W/m 12,9 km/h (3 Bft) 95,74 %
29.12.2019 02:36 0,4 C 0,0 C -1,1 C 89 % 1039,6 hPa 0,0 l/m 0 min 0 min 0 W/m 6,4 km/h (2 Bft) 93,62 %
29.12.2019 02:38 0,4 C 0,0 C -1,1 C 89 % 1039,6 hPa 0,0 l/m 0 min 0 min 0 W/m 12,9 km/h (3 Bft) 96,23 %
29.12.2019 02:40 0,4 C 0,0 C -1,1 C 89 % 1039,6 hPa 0,0 l/m 0 min 0 min 0 W/m 16,1 km/h (3 Bft) 97,37 %
29.12.2019 02:42 0,4 C 0,0 C -1,1 C 89 % 1039,5 hPa 0,0 l/m 0 min 0 min 0 W/m 6,4 km/h (2 Bft) 97,87 %
29.12.2019 02:44 0,4 C 0,0 C -1,1 C 89 % 1039,6 hPa 0,0 l/m 0 min 0 min 0 W/m 16,1 km/h (3 Bft) 95,92 %
29.12.2019 02:46 0,4 C 0,0 C -0,6 C 89 % 1039,6 hPa 0,0 l/m 0 min 0 min 0 W/m 12,9 km/h (3 Bft) 95,74 %
29.12.2019 02:48 0,4 C 0,0 C -0,6 C 89 % 1039,5 hPa 0,0 l/m 0 min 0 min 0 W/m 12,9 km/h (3 Bft) 95,74 %
29.12.2019 02:50 0,4 C 0,0 C -0,6 C 90 % 1039,6 hPa 0,0 l/m 0 min 0 min 0 W/m 19,3 km/h (3 Bft) 92,45 %
29.12.2019 02:52 0,4 C 0,0 C -0,6 C 90 % 1039,6 hPa 0,0 l/m 0 min 0 min 0 W/m 12,9 km/h (3 Bft) 97,37 %
29.12.2019 02:54 0,4 C 0,0 C -0,6 C 90 % 1039,7 hPa 0,0 l/m 0 min 0 min 0 W/m 16,1 km/h (3 Bft) 93,88 %
29.12.2019 02:56 0,4 C 0,0 C -0,6 C 89 % 1039,7 hPa 0,0 l/m 0 min 0 min 0 W/m 12,9 km/h (3 Bft) 95,74 %
29.12.2019 02:58 0,4 C 0,0 C -1,1 C 89 % 1039,7 hPa 0,0 l/m 0 min 0 min 0 W/m 16,1 km/h (3 Bft) 96,30 %
29.12.2019 03:00 0,4 C 0,0 C -1,1 C 89 % 1039,7 hPa 0,0 l/m 0 min 0 min 0 W/m 6,4 km/h (2 Bft) 92,11 %
29.12.2019 03:02 0,4 C 0,0 C -0,6 C 89 % 1039,8 hPa 0,0 l/m 0 min 0 min 0 W/m 16,1 km/h (3 Bft) 95,65 %
29.12.2019 03:04 0,4 C 0,0 C -1,1 C 89 % 1039,8 hPa 0,0 l/m 0 min 0 min 0 W/m 12,9 km/h (3 Bft) 98,00 %
29.12.2019 03:06 0,4 C 0,0 C -0,6 C 89 % 1039,7 hPa 0,0 l/m 0 min 0 min 0 W/m 19,3 km/h (3 Bft) 97,83 %
29.12.2019 03:08 0,4 C 0,0 C -0,6 C 89 % 1039,6 hPa 0,0 l/m 0 min 0 min 0 W/m 12,9 km/h (3 Bft) 95,74 %
29.12.2019 03:10 0,4 C 0,0 C -0,6 C 89 % 1039,6 hPa 0,0 l/m 0 min 0 min 0 W/m 16,1 km/h (3 Bft) 97,87 %
29.12.2019 03:12 0,4 C 0,0 C -0,6 C 89 % 1039,5 hPa 0,0 l/m 0 min 0 min 0 W/m 22,5 km/h (4 Bft) 97,87 %
29.12.2019 03:14 0,4 C 0,0 C -0,6 C 89 % 1039,4 hPa 0,0 l/m 0 min 0 min 0 W/m 16,1 km/h (3 Bft) 98,11 %
29.12.2019 03:16 0,4 C 0,0 C -0,6 C 89 % 1039,3 hPa 0,0 l/m 0 min 0 min 0 W/m 25,7 km/h (4 Bft) 97,87 %
29.12.2019 03:18 0,4 C 0,0 C -0,6 C 89 % 1039,3 hPa 0,0 l/m 0 min 0 min 0 W/m 12,9 km/h (3 Bft) 97,37 %
29.12.2019 03:20 0,4 C 0,0 C -0,6 C 89 % 1039,3 hPa 0,0 l/m 0 min 0 min 0 W/m 6,4 km/h (2 Bft) 97,96 %
29.12.2019 03:22 0,4 C 0,0 C -1,1 C 89 % 1039,2 hPa 0,0 l/m 0 min 0 min 0 W/m 19,3 km/h (3 Bft) 97,87 %
29.12.2019 03:24 0,4 C 0,0 C -0,6 C 89 % 1039,2 hPa 0,0 l/m 0 min 0 min 0 W/m 12,9 km/h (3 Bft) 95,74 %
29.12.2019 03:26 0,4 C 0,0 C -1,1 C 89 % 1039,2 hPa 0,0 l/m 0 min 0 min 0 W/m 12,9 km/h (3 Bft) 98,11 %
29.12.2019 03:28 0,4 C -0,6 C -1,1 C 89 % 1039,2 hPa 0,0 l/m 0 min 0 min 0 W/m 16,1 km/h (3 Bft) 92,11 %
29.12.2019 03:30 0,4 C 0,0 C -1,1 C 89 % 1039,2 hPa 0,0 l/m 0 min 0 min 0 W/m 12,9 km/h (3 Bft) 95,92 %
29.12.2019 03:32 0,4 C -0,6 C -1,1 C 89 % 1039,1 hPa 0,0 l/m 0 min 0 min 0 W/m 12,9 km/h (3 Bft) 97,87 %
29.12.2019 03:34 0,4 C -0,6 C -1,1 C 89 % 1039,1 hPa 0,0 l/m 0 min 0 min 0 W/m 16,1 km/h (3 Bft) 98,11 %
29.12.2019 03:36 0,4 C -0,6 C -1,1 C 89 % 1039,1 hPa 0,0 l/m 0 min 0 min 0 W/m 16,1 km/h (3 Bft) 100,00 %
29.12.2019 03:38 0,4 C -0,6 C -1,1 C 89 % 1039,1 hPa 0,0 l/m 0 min 0 min 0 W/m 16,1 km/h (3 Bft) 100,00 %
29.12.2019 03:40 0,3 C -0,6 C -1,1 C 89 % 1039,0 hPa 0,0 l/m 0 min 0 min 0 W/m 19,3 km/h (3 Bft) 97,83 %
29.12.2019 03:42 0,3 C -0,6 C -1,1 C 89 % 1039,0 hPa 0,0 l/m 0 min 0 min 0 W/m 19,3 km/h (3 Bft) 98,15 %
29.12.2019 03:44 0,3 C -0,6 C -1,1 C 89 % 1038,9 hPa 0,0 l/m 0 min 0 min 0 W/m 16,1 km/h (3 Bft) 100,00 %
29.12.2019 03:46 0,3 C -0,6 C -1,1 C 89 % 1038,9 hPa 0,0 l/m 0 min 0 min 0 W/m 16,1 km/h (3 Bft) 100,00 %
29.12.2019 03:48 0,3 C -0,6 C -1,1 C 89 % 1038,9 hPa 0,0 l/m 0 min 0 min 0 W/m 12,9 km/h (3 Bft) 100,00 %
29.12.2019 03:50 0,3 C -0,6 C -1,1 C 89 % 1038,8 hPa 0,0 l/m 0 min 0 min 0 W/m 19,3 km/h (3 Bft) 100,00 %
29.12.2019 03:52 0,3 C -0,6 C -1,1 C 89 % 1038,8 hPa 0,0 l/m 0 min 0 min 0 W/m 22,5 km/h (4 Bft) 100,00 %
29.12.2019 03:54 0,3 C -0,6 C -1,1 C 89 % 1038,8 hPa 0,0 l/m 0 min 0 min 0 W/m 12,9 km/h (3 Bft) 100,00 %
29.12.2019 03:56 0,3 C -0,6 C -1,1 C 89 % 1038,8 hPa 0,0 l/m 0 min 0 min 0 W/m 22,5 km/h (4 Bft) 100,00 %
29.12.2019 03:58 0,2 C -0,6 C -1,1 C 89 % 1038,8 hPa 0,0 l/m 0 min 0 min 0 W/m 6,4 km/h (2 Bft) 100,00 %
29.12.2019 04:00 0,2 C -0,6 C -1,1 C 89 % 1038,8 hPa 0,0 l/m 0 min 0 min 0 W/m 16,1 km/h (3 Bft) 100,00 %
29.12.2019 04:02 0,2 C -0,6 C -1,1 C 89 % 1038,9 hPa 0,0 l/m 0 min 0 min 0 W/m 6,4 km/h (2 Bft) 96,55 %
29.12.2019 04:07 0,2 C -0,6 C -1,1 C 89 % 1039,1 hPa 0,0 l/m 0 min 0 min 0 W/m 12,9 km/h (3 Bft) 100,00 %
29.12.2019 04:08 0,2 C -0,6 C -1,1 C 89 % 1039,1 hPa 0,0 l/m 0 min 0 min 0 W/m 6,4 km/h (2 Bft) 100,00 %
29.12.2019 04:10 0,2 C -0,6 C -1,1 C 90 % 1039,1 hPa 0,0 l/m 0 min 0 min 0 W/m 3,2 km/h (1 Bft) 100,00 %
29.12.2019 04:12 0,1 C -0,6 C -1,1 C 90 % 1039,0 hPa 0,0 l/m 0 min 0 min 0 W/m 12,9 km/h (3 Bft) 97,87 %
29.12.2019 04:14 0,1 C -0,6 C -1,1 C 90 % 1039,1 hPa 0,0 l/m 0 min 0 min 0 W/m 16,1 km/h (3 Bft) 97,83 %
29.12.2019 04:16 0,1 C -0,6 C -1,1 C 90 % 1039,0 hPa 0,0 l/m 0 min 0 min 0 W/m 16,1 km/h (3 Bft) 100,00 %
29.12.2019 04:18 0,1 C -0,6 C -1,1 C 90 % 1038,9 hPa 0,0 l/m 0 min 0 min 0 W/m 19,3 km/h (3 Bft) 100,00 %
29.12.2019 04:20 0,1 C -0,6 C -1,1 C 90 % 1038,9 hPa 0,0 l/m 0 min 0 min 0 W/m 16,1 km/h (3 Bft) 100,00 %
29.12.2019 04:22 0,1 C -0,6 C -1,1 C 90 % 1038,9 hPa 0,0 l/m 0 min 0 min 0 W/m 16,1 km/h (3 Bft) 100,00 %
29.12.2019 04:24 0,1 C -0,6 C -1,1 C 90 % 1038,8 hPa 0,0 l/m 0 min 0 min 0 W/m 12,9 km/h (3 Bft) 100,00 %
29.12.2019 04:26 0,1 C -0,6 C -1,1 C 90 % 1038,8 hPa 0,0 l/m 0 min 0 min 0 W/m 16,1 km/h (3 Bft) 100,00 %
29.12.2019 04:28 0,1 C -0,6 C -1,1 C 90 % 1038,8 hPa 0,0 l/m 0 min 0 min 0 W/m 16,1 km/h (3 Bft) 100,00 %
29.12.2019 04:30 0,1 C -0,6 C -1,1 C 90 % 1038,9 hPa 0,0 l/m 0 min 0 min 0 W/m 12,9 km/h (3 Bft) 100,00 %
29.12.2019 04:32 0,1 C -0,6 C -1,1 C 90 % 1038,9 hPa 0,0 l/m 0 min 0 min 0 W/m 19,3 km/h (3 Bft) 100,00 %
29.12.2019 04:34 0,1 C -0,6 C -1,1 C 90 % 1039,0 hPa 0,0 l/m 0 min 0 min 0 W/m 25,7 km/h (4 Bft) 100,00 %
29.12.2019 04:36 0,1 C -0,6 C -1,1 C 90 % 1039,0 hPa 0,0 l/m 0 min 0 min 0 W/m 12,9 km/h (3 Bft) 100,00 %
29.12.2019 04:38 0,1 C -0,6 C -1,1 C 90 % 1039,0 hPa 0,0 l/m 0 min 0 min 0 W/m 22,5 km/h (4 Bft) 100,00 %
29.12.2019 04:40 0,1 C -0,6 C -1,1 C 90 % 1039,0 hPa 0,0 l/m 0 min 0 min 0 W/m 16,1 km/h (3 Bft) 100,00 %
29.12.2019 04:42 0,1 C -0,6 C -1,1 C 90 % 1039,0 hPa 0,0 l/m 0 min 0 min 0 W/m 22,5 km/h (4 Bft) 97,87 %
29.12.2019 04:44 0,1 C -0,6 C -1,1 C 90 % 1039,0 hPa 0,0 l/m 0 min 0 min 0 W/m 12,9 km/h (3 Bft) 100,00 %
29.12.2019 04:46 0,1 C -0,6 C -1,1 C 90 % 1038,9 hPa 0,0 l/m 0 min 0 min 0 W/m 12,9 km/h (3 Bft) 97,87 %
29.12.2019 04:48 0,2 C -0,6 C -1,1 C 90 % 1038,9 hPa 0,0 l/m 0 min 0 min 0 W/m 12,9 km/h (3 Bft) 97,83 %
29.12.2019 04:50 0,2 C -0,6 C -1,1 C 90 % 1038,9 hPa 0,0 l/m 0 min 0 min 0 W/m 19,3 km/h (3 Bft) 97,87 %
29.12.2019 04:52 0,1 C -0,6 C -1,1 C 90 % 1038,9 hPa 0,0 l/m 0 min 0 min 0 W/m 12,9 km/h (3 Bft) 97,87 %
29.12.2019 04:54 0,1 C -0,6 C -1,1 C 90 % 1038,8 hPa 0,0 l/m 0 min 0 min 0 W/m 22,5 km/h (4 Bft) 93,62 %
29.12.2019 04:56 0,1 C -0,6 C -1,1 C 90 % 1038,9 hPa 0,0 l/m 0 min 0 min 0 W/m 16,1 km/h (3 Bft) 93,62 %
29.12.2019 04:58 0,1 C -0,6 C -1,1 C 90 % 1039,0 hPa 0,0 l/m 0 min 0 min 0 W/m 19,3 km/h (3 Bft) 95,74 %
29.12.2019 05:00 0,1 C -0,6 C -1,1 C 90 % 1038,9 hPa 0,0 l/m 0 min 0 min 0 W/m 6,4 km/h (2 Bft) 51,06 %
29.12.2019 05:02 0,1 C -0,6 C -1,1 C 90 % 1039,0 hPa 0,0 l/m 0 min 0 min 0 W/m 6,4 km/h (2 Bft) 93,48 %
29.12.2019 05:04 0,1 C -0,6 C -1,1 C 90 % 1039,0 hPa 0,0 l/m 0 min 0 min 0 W/m 6,4 km/h (2 Bft) 93,62 %
29.12.2019 05:06 0,1 C -0,6 C -1,7 C 90 % 1038,9 hPa 0,0 l/m 0 min 0 min 0 W/m 12,9 km/h (3 Bft) 95,74 %
29.12.2019 05:08 0,1 C -0,6 C -1,7 C 90 % 1038,8 hPa 0,0 l/m 0 min 0 min 0 W/m 3,2 km/h (1 Bft) 95,74 %
29.12.2019 05:10 0,1 C -0,6 C -1,7 C 90 % 1038,8 hPa 0,0 l/m 0 min 0 min 0 W/m 6,4 km/h (2 Bft) 95,74 %
29.12.2019 05:12 0,1 C -0,6 C -1,7 C 90 % 1038,8 hPa 0,0 l/m 0 min 0 min 0 W/m 3,2 km/h (1 Bft) 93,48 %
29.12.2019 05:14 0,1 C -0,6 C -1,7 C 90 % 1038,9 hPa 0,0 l/m 0 min 0 min 0 W/m 19,3 km/h (3 Bft) 95,74 %
29.12.2019 05:16 0,1 C -1,1 C -1,7 C 90 % 1038,9 hPa 0,0 l/m 0 min 0 min 0 W/m 6,4 km/h (2 Bft) 95,74 %
29.12.2019 05:18 0,0 C -1,1 C -1,7 C 90 % 1038,8 hPa 0,0 l/m 0 min 0 min 0 W/m 12,9 km/h (3 Bft) 95,74 %
29.12.2019 05:20 0,0 C -1,1 C -1,7 C 90 % 1038,7 hPa 0,0 l/m 0 min 0 min 0 W/m 6,4 km/h (2 Bft) 95,74 %
29.12.2019 05:22 0,0 C -1,1 C -1,7 C 90 % 1038,7 hPa 0,0 l/m 0 min 0 min 0 W/m 12,9 km/h (3 Bft) 95,74 %
29.12.2019 05:24 -0,1 C -1,1 C -1,7 C 90 % 1038,7 hPa 0,0 l/m 0 min 0 min 0 W/m 6,4 km/h (2 Bft) 93,48 %
29.12.2019 05:26 -0,1 C -1,1 C -1,7 C 90 % 1038,6 hPa 0,0 l/m 0 min 0 min 0 W/m 3,2 km/h (1 Bft) 93,62 %
29.12.2019 05:28 -0,1 C -1,1 C -1,7 C 90 % 1038,7 hPa 0,0 l/m 0 min 0 min 0 W/m 6,4 km/h (2 Bft) 95,74 %
29.12.2019 05:30 -0,1 C -1,1 C -1,7 C 90 % 1038,7 hPa 0,0 l/m 0 min 0 min 0 W/m 3,2 km/h (1 Bft) 91,49 %
29.12.2019 05:32 -0,1 C -1,1 C -1,7 C 90 % 1038,7 hPa 0,0 l/m 0 min 0 min 0 W/m 6,4 km/h (2 Bft) 93,62 %
29.12.2019 05:34 -0,1 C -1,1 C -1,7 C 90 % 1038,7 hPa 0,0 l/m 0 min 0 min 0 W/m 6,4 km/h (2 Bft) 93,62 %
29.12.2019 05:36 -0,1 C -1,1 C -1,7 C 90 % 1038,7 hPa 0,0 l/m 0 min 0 min 0 W/m 16,1 km/h (3 Bft) 93,48 %
29.12.2019 05:38 -0,1 C -0,6 C -1,7 C 90 % 1038,7 hPa 0,0 l/m 0 min 0 min 0 W/m 12,9 km/h (3 Bft) 93,62 %
29.12.2019 05:40 -0,1 C -0,6 C -1,7 C 90 % 1038,8 hPa 0,0 l/m 0 min 0 min 0 W/m 6,4 km/h (2 Bft) 91,49 %
29.12.2019 05:42 -0,1 C -0,6 C -1,7 C 90 % 1038,9 hPa 0,0 l/m 0 min 0 min 0 W/m 6,4 km/h (2 Bft) 95,74 %
29.12.2019 05:44 -0,1 C -0,6 C -1,1 C 90 % 1038,9 hPa 0,0 l/m 0 min 0 min 0 W/m 12,9 km/h (3 Bft) 95,74 %
29.12.2019 05:46 -0,1 C -0,6 C -1,1 C 90 % 1038,9 hPa 0,0 l/m 0 min 0 min 0 W/m 6,4 km/h (2 Bft) 93,48 %
29.12.2019 05:48 -0,1 C -0,6 C -1,7 C 90 % 1038,9 hPa 0,0 l/m 0 min 0 min 0 W/m 3,2 km/h (1 Bft) 97,87 %
29.12.2019 05:50 -0,1 C -0,6 C -1,7 C 90 % 1038,9 hPa 0,0 l/m 0 min 0 min 0 W/m 9,7 km/h (2 Bft) 95,74 %
29.12.2019 05:52 -0,1 C -0,6 C -1,7 C 90 % 1038,8 hPa 0,0 l/m 0 min 0 min 0 W/m 16,1 km/h (3 Bft) 97,87 %
29.12.2019 05:54 -0,1 C -0,6 C -1,1 C 90 % 1038,8 hPa 0,0 l/m 0 min 0 min 0 W/m 6,4 km/h (2 Bft) 97,87 %
29.12.2019 05:56 -0,1 C -0,6 C -1,1 C 90 % 1038,8 hPa 0,0 l/m 0 min 0 min 0 W/m 16,1 km/h (3 Bft) 97,87 %
29.12.2019 05:58 -0,1 C -0,6 C -1,1 C 90 % 1038,8 hPa 0,0 l/m 0 min 0 min 0 W/m 12,9 km/h (3 Bft) 97,83 %
29.12.2019 06:00 -0,1 C -0,6 C -1,1 C 90 % 1038,9 hPa 0,0 l/m 0 min 0 min 0 W/m 19,3 km/h (3 Bft) 95,74 %
29.12.2019 06:02 -0,1 C -0,6 C -1,1 C 90 % 1038,9 hPa 0,0 l/m 0 min 0 min 0 W/m 6,4 km/h (2 Bft) 97,87 %
29.12.2019 06:04 -0,1 C -0,6 C -1,1 C 90 % 1038,9 hPa 0,0 l/m 0 min 0 min 0 W/m 12,9 km/h (3 Bft) 97,87 %
29.12.2019 06:08 -0,1 C -0,6 C -1,7 C 90 % 1039,0 hPa 0,0 l/m 0 min 0 min 0 W/m 6,4 km/h (2 Bft) 97,87 %
29.12.2019 06:10 -0,1 C -1,1 C -1,7 C 90 % 1039,0 hPa 0,0 l/m 0 min 0 min 0 W/m 12,9 km/h (3 Bft) 93,48 %
29.12.2019 06:12 -0,1 C -0,6 C -1,7 C 90 % 1039,0 hPa 0,0 l/m 0 min 0 min 0 W/m 12,9 km/h (3 Bft) 97,87 %
29.12.2019 06:14 -0,1 C -0,6 C -1,7 C 90 % 1039,1 hPa 0,0 l/m 0 min 0 min 0 W/m 16,1 km/h (3 Bft) 97,87 %
29.12.2019 06:16 -0,1 C -0,6 C -1,7 C 90 % 1039,1 hPa 0,0 l/m 0 min 0 min 0 W/m 16,1 km/h (3 Bft) 97,87 %
29.12.2019 06:18 -0,1 C -1,1 C -1,7 C 90 % 1039,1 hPa 0,0 l/m 0 min 0 min 0 W/m 0,0 km/h (0 Bft) 97,87 %
29.12.2019 06:20 -0,1 C -1,1 C -1,7 C 90 % 1039,1 hPa 0,0 l/m 0 min 0 min 0 W/m 6,4 km/h (2 Bft) 97,87 %
29.12.2019 06:22 -0,1 C -1,1 C -1,7 C 90 % 1039,1 hPa 0,0 l/m 0 min 0 min 0 W/m 6,4 km/h (2 Bft) 100,00 %
29.12.2019 06:24 -0,2 C -1,1 C -1,7 C 90 % 1039,1 hPa 0,0 l/m 0 min 0 min 0 W/m 12,9 km/h (3 Bft) 100,00 %
29.12.2019 06:26 -0,2 C -0,6 C -1,7 C 90 % 1039,1 hPa 0,0 l/m 0 min 0 min 0 W/m 12,9 km/h (3 Bft) 100,00 %
29.12.2019 06:28 -0,2 C -1,1 C -1,7 C 90 % 1039,0 hPa 0,0 l/m 0 min 0 min 0 W/m 6,4 km/h (2 Bft) 100,00 %
29.12.2019 06:30 -0,2 C -1,1 C -1,7 C 90 % 1039,0 hPa 0,0 l/m 0 min 0 min 0 W/m 3,2 km/h (1 Bft) 100,00 %
29.12.2019 06:32 -0,2 C -1,1 C -1,7 C 90 % 1039,0 hPa 0,0 l/m 0 min 0 min 0 W/m 6,4 km/h (2 Bft) 100,00 %
29.12.2019 06:34 -0,2 C -1,1 C -1,7 C 90 % 1039,0 hPa 0,0 l/m 0 min 0 min 0 W/m 12,9 km/h (3 Bft) 100,00 %
29.12.2019 06:36 -0,2 C -1,1 C -1,7 C 90 % 1038,9 hPa 0,0 l/m 0 min 0 min 0 W/m 19,3 km/h (3 Bft) 100,00 %
29.12.2019 06:38 -0,2 C -1,1 C -1,7 C 90 % 1038,9 hPa 0,0 l/m 0 min 0 min 0 W/m 19,3 km/h (3 Bft) 100,00 %
29.12.2019 06:40 -0,2 C -1,1 C -1,7 C 90 % 1038,9 hPa 0,0 l/m 0 min 0 min 0 W/m 16,1 km/h (3 Bft) 100,00 %
29.12.2019 06:42 -0,2 C -1,1 C -1,7 C 90 % 1038,9 hPa 0,0 l/m 0 min 0 min 0 W/m 16,1 km/h (3 Bft) 100,00 %
29.12.2019 06:44 -0,2 C -1,1 C -1,7 C 90 % 1038,8 hPa 0,0 l/m 0 min 0 min 0 W/m 16,1 km/h (3 Bft) 100,00 %
29.12.2019 06:46 -0,2 C -1,1 C -1,7 C 90 % 1038,8 hPa 0,0 l/m 0 min 0 min 0 W/m 12,9 km/h (3 Bft) 100,00 %
29.12.2019 06:48 -0,2 C -1,1 C -1,7 C 90 % 1038,8 hPa 0,0 l/m 0 min 0 min 0 W/m 16,1 km/h (3 Bft) 100,00 %
29.12.2019 06:50 -0,2 C -1,1 C -1,7 C 90 % 1038,8 hPa 0,0 l/m 0 min 0 min 0 W/m 12,9 km/h (3 Bft) 100,00 %
29.12.2019 06:52 -0,2 C -1,1 C -1,7 C 90 % 1038,8 hPa 0,0 l/m 0 min 0 min 0 W/m 16,1 km/h (3 Bft) 100,00 %
29.12.2019 06:54 -0,3 C -1,1 C -1,7 C 90 % 1038,8 hPa 0,0 l/m 0 min 0 min 0 W/m 12,9 km/h (3 Bft) 100,00 %
29.12.2019 06:56 -0,2 C -1,1 C -1,7 C 90 % 1038,8 hPa 0,0 l/m 0 min 0 min 0 W/m 12,9 km/h (3 Bft) 100,00 %
29.12.2019 06:58 -0,3 C -1,1 C -1,7 C 90 % 1038,8 hPa 0,0 l/m 0 min 0 min 0 W/m 6,4 km/h (2 Bft) 100,00 %
29.12.2019 07:00 -0,3 C -1,1 C -1,7 C 90 % 1038,8 hPa 0,0 l/m 0 min 0 min 0 W/m 12,9 km/h (3 Bft) 100,00 %
29.12.2019 07:02 -0,3 C -1,1 C -1,7 C 90 % 1038,7 hPa 0,0 l/m 0 min 0 min 0 W/m 16,1 km/h (3 Bft) 100,00 %
29.12.2019 07:04 -0,3 C -1,1 C -1,7 C 90 % 1038,8 hPa 0,0 l/m 0 min 0 min 0 W/m 19,3 km/h (3 Bft) 100,00 %
29.12.2019 07:06 -0,3 C -1,1 C -1,7 C 90 % 1038,8 hPa 0,0 l/m 0 min 0 min 0 W/m 6,4 km/h (2 Bft) 100,00 %
29.12.2019 07:08 -0,3 C -1,1 C -1,7 C 90 % 1038,8 hPa 0,0 l/m 0 min 0 min 0 W/m 16,1 km/h (3 Bft) 100,00 %
29.12.2019 07:10 -0,3 C -1,1 C -1,7 C 90 % 1038,8 hPa 0,0 l/m 0 min 0 min 0 W/m 16,1 km/h (3 Bft) 95,74 %
29.12.2019 07:12 -0,3 C -1,1 C -1,7 C 90 % 1038,8 hPa 0,0 l/m 0 min 0 min 0 W/m 16,1 km/h (3 Bft) 100,00 %
29.12.2019 07:14 -0,3 C -1,1 C -1,7 C 90 % 1038,9 hPa 0,0 l/m 0 min 0 min 0 W/m 16,1 km/h (3 Bft) 100,00 %
29.12.2019 07:16 -0,3 C -1,1 C -1,7 C 90 % 1039,0 hPa 0,0 l/m 0 min 0 min 0 W/m 19,3 km/h (3 Bft) 100,00 %
29.12.2019 07:18 -0,2 C -1,1 C -1,7 C 90 % 1039,0 hPa 0,0 l/m 0 min 0 min 0 W/m 16,1 km/h (3 Bft) 100,00 %
29.12.2019 07:20 -0,3 C -1,1 C -1,7 C 90 % 1039,0 hPa 0,0 l/m 0 min 0 min 0 W/m 16,1 km/h (3 Bft) 100,00 %
29.12.2019 07:22 -0,3 C -0,6 C -1,1 C 90 % 1039,0 hPa 0,0 l/m 0 min 0 min 0 W/m 16,1 km/h (3 Bft) 100,00 %
29.12.2019 07:24 -0,2 C -0,6 C -1,1 C 90 % 1039,0 hPa 0,0 l/m 0 min 0 min 0 W/m 12,9 km/h (3 Bft) 100,00 %
29.12.2019 07:26 -0,2 C -0,6 C -1,1 C 90 % 1039,0 hPa 0,0 l/m 0 min 0 min 0 W/m 19,3 km/h (3 Bft) 97,87 %
29.12.2019 07:28 -0,2 C -0,6 C -1,1 C 90 % 1039,0 hPa 0,0 l/m 0 min 0 min 0 W/m 12,9 km/h (3 Bft) 100,00 %
29.12.2019 07:30 -0,2 C -0,6 C -1,7 C 90 % 1038,9 hPa 0,0 l/m 0 min 0 min 0 W/m 19,3 km/h (3 Bft) 100,00 %
29.12.2019 07:32 -0,2 C -0,6 C -1,1 C 90 % 1038,9 hPa 0,0 l/m 0 min 0 min 0 W/m 16,1 km/h (3 Bft) 97,83 %
29.12.2019 07:34 -0,2 C -0,6 C -1,1 C 90 % 1038,9 hPa 0,0 l/m 0 min 0 min 0 W/m 12,9 km/h (3 Bft) 95,74 %
29.12.2019 07:36 -0,2 C -0,6 C -1,1 C 90 % 1038,9 hPa 0,0 l/m 0 min 0 min 0 W/m 16,1 km/h (3 Bft) 97,87 %
29.12.2019 07:38 -0,2 C -0,6 C -1,1 C 90 % 1038,9 hPa 0,0 l/m 0 min 0 min 0 W/m 19,3 km/h (3 Bft) 95,74 %
29.12.2019 07:40 -0,2 C -1,1 C -1,1 C 90 % 1038,9 hPa 0,0 l/m 0 min 0 min 0 W/m 12,9 km/h (3 Bft) 97,87 %
29.12.2019 07:42 -0,2 C -0,6 C -1,1 C 90 % 1038,8 hPa 0,0 l/m 0 min 0 min 0 W/m 22,5 km/h (4 Bft) 97,83 %
29.12.2019 07:44 -0,2 C -0,6 C -1,1 C 90 % 1038,8 hPa 0,0 l/m 0 min 0 min 0 W/m 16,1 km/h (3 Bft) 97,87 %
29.12.2019 07:46 -0,2 C -0,6 C -1,1 C 89 % 1038,8 hPa 0,0 l/m 0 min 0 min 0 W/m 16,1 km/h (3 Bft) 97,87 %
29.12.2019 07:48 -0,2 C -0,6 C -1,1 C 89 % 1038,8 hPa 0,0 l/m 0 min 0 min 0 W/m 12,9 km/h (3 Bft) 93,62 %
29.12.2019 07:50 -0,2 C -0,6 C -1,1 C 89 % 1038,8 hPa 0,0 l/m 0 min 0 min 0 W/m 16,1 km/h (3 Bft) 97,87 %
29.12.2019 07:52 -0,2 C -0,6 C -1,1 C 89 % 1038,8 hPa 0,0 l/m 0 min 0 min 0 W/m 19,3 km/h (3 Bft) 97,87 %
29.12.2019 07:54 -0,2 C -0,6 C -1,1 C 89 % 1038,8 hPa 0,0 l/m 0 min 0 min 0 W/m 16,1 km/h (3 Bft) 59,57 %
29.12.2019 07:56 -0,2 C -0,6 C -1,1 C 89 % 1038,8 hPa 0,0 l/m 0 min 0 min 0 W/m 12,9 km/h (3 Bft) 95,56 %
29.12.2019 07:58 -0,2 C -0,6 C -1,1 C 89 % 1038,8 hPa 0,0 l/m 0 min 0 min 0 W/m 19,3 km/h (3 Bft) 93,62 %
29.12.2019 08:00 -0,2 C -0,6 C -1,1 C 89 % 1038,7 hPa 0,0 l/m 0 min 0 min 0 W/m 19,3 km/h (3 Bft) 95,74 %
29.12.2019 08:02 -0,2 C -0,6 C -1,1 C 89 % 1038,7 hPa 0,0 l/m 0 min 0 min 0 W/m 19,3 km/h (3 Bft) 89,36 %
29.12.2019 08:04 -0,1 C -0,6 C -1,1 C 89 % 1038,7 hPa 0,0 l/m 0 min 0 min 0 W/m 16,1 km/h (3 Bft) 97,87 %
29.12.2019 08:06 -0,1 C -0,6 C -1,1 C 89 % 1038,8 hPa 0,0 l/m 0 min 0 min 0 W/m 12,9 km/h (3 Bft) 93,48 %
29.12.2019 08:08 -0,1 C -0,6 C -1,1 C 89 % 1038,8 hPa 0,0 l/m 0 min 0 min 0 W/m 16,1 km/h (3 Bft) 95,74 %
29.12.2019 08:10 -0,1 C -0,6 C -1,1 C 89 % 1038,7 hPa 0,0 l/m 0 min 0 min 0 W/m 29,0 km/h (5 Bft) 95,65 %
29.12.2019 08:12 -0,1 C -0,6 C -1,1 C 89 % 1038,6 hPa 0,0 l/m 0 min 0 min 0 W/m 16,1 km/h (3 Bft) 97,87 %
29.12.2019 08:14 -0,1 C -0,6 C -1,1 C 89 % 1038,6 hPa 0,0 l/m 0 min 0 min 0 W/m 22,5 km/h (4 Bft) 95,74 %
29.12.2019 08:16 -0,1 C -0,6 C -1,1 C 89 % 1038,6 hPa 0,0 l/m 0 min 0 min 0 W/m 12,9 km/h (3 Bft) 95,74 %
29.12.2019 08:18 -0,1 C -0,6 C -1,1 C 89 % 1038,7 hPa 0,0 l/m 0 min 0 min 0 W/m 16,1 km/h (3 Bft) 93,48 %
29.12.2019 08:20 -0,1 C -0,6 C -1,1 C 89 % 1038,7 hPa 0,0 l/m 0 min 0 min 0 W/m 12,9 km/h (3 Bft) 97,87 %
29.12.2019 08:22 -0,1 C -0,6 C -1,1 C 89 % 1038,7 hPa 0,0 l/m 0 min 0 min 0 W/m 16,1 km/h (3 Bft) 93,62 %
29.12.2019 08:24 -0,1 C -0,6 C -1,1 C 89 % 1038,7 hPa 0,0 l/m 0 min 0 min 0 W/m 6,4 km/h (2 Bft) 95,74 %
29.12.2019 08:26 -0,1 C -0,6 C -1,1 C 89 % 1038,7 hPa 0,0 l/m 0 min 0 min 0 W/m 12,9 km/h (3 Bft) 93,62 %
29.12.2019 08:28 0,0 C -0,6 C -1,1 C 89 % 1038,8 hPa 0,0 l/m 0 min 0 min 0 W/m 16,1 km/h (3 Bft) 95,65 %
29.12.2019 08:30 0,0 C -0,6 C -1,1 C 89 % 1038,8 hPa 0,0 l/m 0 min 0 min 2 W/m 19,3 km/h (3 Bft) 93,62 %
29.12.2019 08:32 0,0 C -0,6 C -1,1 C 89 % 1038,8 hPa 0,0 l/m 0 min 0 min 0 W/m 16,1 km/h (3 Bft) 95,74 %
29.12.2019 08:34 0,0 C -0,6 C -1,1 C 89 % 1038,8 hPa 0,0 l/m 0 min 0 min 0 W/m 16,1 km/h (3 Bft) 87,23 %
29.12.2019 08:36 0,0 C -0,6 C -1,1 C 89 % 1038,8 hPa 0,0 l/m 0 min 0 min 0 W/m 16,1 km/h (3 Bft) 95,74 %
29.12.2019 08:38 0,1 C -0,6 C -1,1 C 89 % 1039,0 hPa 0,0 l/m 0 min 0 min 0 W/m 12,9 km/h (3 Bft) 93,62 %
29.12.2019 08:40 0,1 C -0,6 C -1,1 C 89 % 1038,9 hPa 0,0 l/m 0 min 0 min 0 W/m 19,3 km/h (3 Bft) 93,48 %
29.12.2019 08:42 0,1 C -0,6 C -1,1 C 89 % 1038,9 hPa 0,0 l/m 0 min 0 min 0 W/m 12,9 km/h (3 Bft) 95,74 %
29.12.2019 08:44 0,1 C -0,6 C -1,1 C 89 % 1038,9 hPa 0,0 l/m 0 min 0 min 5 W/m 16,1 km/h (3 Bft) 93,62 %
29.12.2019 08:46 0,1 C -0,6 C -1,1 C 89 % 1038,9 hPa 0,0 l/m 0 min 0 min 5 W/m 6,4 km/h (2 Bft) 95,74 %
29.12.2019 08:48 0,1 C -0,6 C -1,1 C 89 % 1038,8 hPa 0,0 l/m 0 min 0 min 5 W/m 6,4 km/h (2 Bft) 93,62 %
29.12.2019 08:50 0,1 C -0,6 C -1,1 C 89 % 1038,8 hPa 0,0 l/m 0 min 0 min 7 W/m 3,2 km/h (1 Bft) 93,62 %
29.12.2019 08:52 0,1 C -0,6 C -1,1 C 89 % 1038,8 hPa 0,0 l/m 0 min 0 min 8 W/m 16,1 km/h (3 Bft) 89,13 %
29.12.2019 08:54 0,1 C -0,6 C -1,1 C 89 % 1038,9 hPa 0,0 l/m 0 min 0 min 9 W/m 3,2 km/h (1 Bft) 91,49 %
29.12.2019 08:56 0,1 C -0,6 C -1,1 C 89 % 1038,9 hPa 0,0 l/m 0 min 0 min 10 W/m 12,9 km/h (3 Bft) 89,36 %
29.12.2019 08:58 0,1 C -0,6 C -1,1 C 89 % 1039,0 hPa 0,0 l/m 0 min 0 min 11 W/m 19,3 km/h (3 Bft) 91,49 %
29.12.2019 09:00 0,1 C 0,0 C -1,1 C 89 % 1039,0 hPa 0,0 l/m 0 min 0 min 11 W/m 19,3 km/h (3 Bft) 93,62 %
29.12.2019 09:02 0,1 C 0,0 C -1,1 C 89 % 1039,0 hPa 0,0 l/m 0 min 0 min 11 W/m 12,9 km/h (3 Bft) 95,74 %
29.12.2019 09:04 0,1 C 0,0 C -1,1 C 89 % 1039,0 hPa 0,0 l/m 0 min 0 min 12 W/m 6,4 km/h (2 Bft) 95,65 %
29.12.2019 09:06 0,2 C 0,0 C -1,1 C 89 % 1039,0 hPa 0,0 l/m 0 min 0 min 13 W/m 12,9 km/h (3 Bft) 97,73 %
29.12.2019 09:08 0,2 C 0,0 C -1,1 C 89 % 1039,0 hPa 0,0 l/m 0 min 0 min 15 W/m 16,1 km/h (3 Bft) 98,00 %
29.12.2019 09:10 0,2 C 0,0 C -0,6 C 89 % 1038,9 hPa 0,0 l/m 0 min 0 min 18 W/m 12,9 km/h (3 Bft) 95,74 %
29.12.2019 09:12 0,2 C 0,0 C -0,6 C 89 % 1039,0 hPa 0,0 l/m 0 min 0 min 19 W/m 12,9 km/h (3 Bft) 95,74 %
29.12.2019 09:14 0,2 C 0,0 C -0,6 C 89 % 1038,9 hPa 0,0 l/m 0 min 0 min 22 W/m 12,9 km/h (3 Bft) 100,00 %
29.12.2019 09:16 0,2 C 0,0 C -0,6 C 89 % 1038,9 hPa 0,0 l/m 0 min 0 min 24 W/m 16,1 km/h (3 Bft) 96,00 %
29.12.2019 09:18 0,2 C 0,0 C -0,6 C 89 % 1038,9 hPa 0,0 l/m 0 min 0 min 25 W/m 3,2 km/h (1 Bft) 100,00 %
29.12.2019 09:20 0,2 C 0,0 C -0,6 C 89 % 1038,9 hPa 0,0 l/m 0 min 0 min 25 W/m 6,4 km/h (2 Bft) 97,87 %
29.12.2019 09:22 0,2 C 0,0 C -0,6 C 89 % 1039,1 hPa 0,0 l/m 0 min 0 min 26 W/m 16,1 km/h (3 Bft) 100,00 %
29.12.2019 09:24 0,2 C 0,0 C -0,6 C 88 % 1039,1 hPa 0,0 l/m 0 min 0 min 26 W/m 16,1 km/h (3 Bft) 98,00 %
29.12.2019 09:26 0,2 C 0,0 C -0,6 C 88 % 1039,1 hPa 0,0 l/m 0 min 0 min 26 W/m 12,9 km/h (3 Bft) 97,87 %
29.12.2019 09:28 0,3 C 0,0 C -0,6 C 88 % 1039,1 hPa 0,0 l/m 0 min 0 min 28 W/m 6,4 km/h (2 Bft) 100,00 %
29.12.2019 09:30 0,3 C 0,0 C -0,6 C 88 % 1039,1 hPa 0,0 l/m 0 min 0 min 28 W/m 6,4 km/h (2 Bft) 100,00 %
29.12.2019 09:32 0,3 C 0,0 C -0,6 C 88 % 1039,2 hPa 0,0 l/m 0 min 0 min 28 W/m 6,4 km/h (2 Bft) 100,00 %
29.12.2019 09:34 0,3 C 0,0 C -0,6 C 88 % 1039,1 hPa 0,0 l/m 0 min 0 min 28 W/m 12,9 km/h (3 Bft) 100,00 %
29.12.2019 09:36 0,3 C 0,0 C -0,6 C 88 % 1039,1 hPa 0,0 l/m 0 min 0 min 28 W/m 3,2 km/h (1 Bft) 100,00 %
29.12.2019 09:38 0,3 C 0,0 C -0,6 C 88 % 1039,1 hPa 0,0 l/m 0 min 0 min 30 W/m 12,9 km/h (3 Bft) 100,00 %
29.12.2019 09:40 0,3 C 0,0 C -0,6 C 88 % 1039,1 hPa 0,0 l/m 0 min 0 min 32 W/m 12,9 km/h (3 Bft) 100,00 %
29.12.2019 09:42 0,4 C 0,0 C -0,6 C 88 % 1039,1 hPa 0,0 l/m 0 min 0 min 32 W/m 12,9 km/h (3 Bft) 98,00 %
29.12.2019 09:44 0,4 C 0,0 C -0,6 C 88 % 1039,1 hPa 0,0 l/m 0 min 0 min 32 W/m 16,1 km/h (3 Bft) 97,87 %
29.12.2019 09:46 0,4 C 0,0 C -0,6 C 89 % 1039,0 hPa 0,0 l/m 0 min 0 min 32 W/m 16,1 km/h (3 Bft) 100,00 %
29.12.2019 09:48 0,4 C 0,0 C -0,6 C 88 % 1039,0 hPa 0,0 l/m 0 min 0 min 32 W/m 12,9 km/h (3 Bft) 97,87 %
29.12.2019 09:50 0,4 C 0,0 C -0,6 C 88 % 1038,9 hPa 0,0 l/m 0 min 0 min 32 W/m 6,4 km/h (2 Bft) 97,67 %
29.12.2019 09:52 0,4 C 0,0 C -0,6 C 88 % 1038,9 hPa 0,0 l/m 0 min 0 min 33 W/m 16,1 km/h (3 Bft) 100,00 %
29.12.2019 09:54 0,4 C 0,0 C -0,6 C 88 % 1038,9 hPa 0,0 l/m 0 min 0 min 34 W/m 16,1 km/h (3 Bft) 100,00 %
29.12.2019 09:56 0,4 C 0,0 C -0,6 C 88 % 1038,8 hPa 0,0 l/m 0 min 0 min 37 W/m 16,1 km/h (3 Bft) 100,00 %
29.12.2019 09:58 0,4 C 0,0 C -0,6 C 88 % 1038,8 hPa 0,0 l/m 0 min 0 min 37 W/m 19,3 km/h (3 Bft) 100,00 %
29.12.2019 10:00 0,5 C 0,0 C -0,6 C 88 % 1038,8 hPa 0,0 l/m 0 min 0 min 37 W/m 12,9 km/h (3 Bft) 100,00 %
29.12.2019 10:02 0,5 C 0,0 C -0,6 C 88 % 1038,8 hPa 0,0 l/m 0 min 0 min 34 W/m 6,4 km/h (2 Bft) 97,87 %
29.12.2019 10:04 0,5 C 0,0 C -0,6 C 89 % 1038,8 hPa 0,0 l/m 0 min 0 min 33 W/m 16,1 km/h (3 Bft) 100,00 %
29.12.2019 10:06 0,5 C 0,0 C -0,6 C 89 % 1038,8 hPa 0,0 l/m 0 min 0 min 32 W/m 19,3 km/h (3 Bft) 97,73 %
29.12.2019 10:08 0,6 C 0,0 C -0,6 C 89 % 1038,8 hPa 0,0 l/m 0 min 0 min 33 W/m 19,3 km/h (3 Bft) 96,00 %
29.12.2019 10:10 0,6 C 0,0 C -0,6 C 89 % 1038,8 hPa 0,0 l/m 0 min 0 min 33 W/m 16,1 km/h (3 Bft) 95,74 %
29.12.2019 10:12 0,6 C 0,0 C -0,6 C 89 % 1038,8 hPa 0,0 l/m 0 min 0 min 33 W/m 6,4 km/h (2 Bft) 97,83 %
29.12.2019 10:14 0,6 C 0,0 C -0,6 C 89 % 1038,9 hPa 0,0 l/m 0 min 0 min 34 W/m 6,4 km/h (2 Bft) 95,45 %
29.12.2019 10:16 0,6 C 0,6 C -0,6 C 89 % 1038,9 hPa 0,0 l/m 0 min 0 min 38 W/m 16,1 km/h (3 Bft) 96,00 %
29.12.2019 10:18 0,6 C 0,6 C 0,0 C 89 % 1038,9 hPa 0,0 l/m 0 min 0 min 41 W/m 6,4 km/h (2 Bft) 93,62 %
29.12.2019 10:20 0,6 C 0,6 C 0,0 C 89 % 1038,9 hPa 0,0 l/m 0 min 0 min 43 W/m 6,4 km/h (2 Bft) 97,87 %
29.12.2019 10:22 0,6 C 0,6 C 0,0 C 88 % 1038,9 hPa 0,0 l/m 0 min 0 min 48 W/m 6,4 km/h (2 Bft) 97,67 %
29.12.2019 10:24 0,6 C 0,6 C 0,0 C 88 % 1039,0 hPa 0,0 l/m 0 min 0 min 55 W/m 12,9 km/h (3 Bft) 98,00 %
29.12.2019 10:26 0,6 C 0,6 C 0,0 C 88 % 1039,0 hPa 0,0 l/m 0 min 0 min 60 W/m 16,1 km/h (3 Bft) 93,62 %
29.12.2019 10:28 0,6 C 0,6 C 0,0 C 88 % 1038,9 hPa 0,0 l/m 0 min 0 min 57 W/m 16,1 km/h (3 Bft) 97,87 %
29.12.2019 10:30 0,6 C 0,6 C 0,0 C 88 % 1038,8 hPa 0,0 l/m 0 min 0 min 54 W/m 16,1 km/h (3 Bft) 97,73 %
29.12.2019 10:32 0,6 C 0,6 C 0,0 C 88 % 1038,8 hPa 0,0 l/m 0 min 0 min 54 W/m 22,5 km/h (4 Bft) 93,88 %
29.12.2019 10:34 0,6 C 0,6 C 0,0 C 88 % 1038,8 hPa 0,0 l/m 0 min 0 min 52 W/m 19,3 km/h (3 Bft) 95,83 %
29.12.2019 10:36 0,6 C 0,6 C 0,0 C 88 % 1038,8 hPa 0,0 l/m 0 min 0 min 47 W/m 22,5 km/h (4 Bft) 97,83 %
29.12.2019 10:38 0,7 C 0,6 C 0,0 C 88 % 1038,7 hPa 0,0 l/m 0 min 0 min 43 W/m 16,1 km/h (3 Bft) 93,18 %
29.12.2019 10:40 0,7 C 0,6 C 0,0 C 88 % 1038,7 hPa 0,0 l/m 0 min 0 min 39 W/m 19,3 km/h (3 Bft) 95,74 %
29.12.2019 10:42 0,7 C 0,6 C 0,0 C 88 % 1038,7 hPa 0,0 l/m 0 min 0 min 38 W/m 6,4 km/h (2 Bft) 96,00 %
29.12.2019 10:44 0,7 C 0,6 C 0,0 C 88 % 1038,7 hPa 0,0 l/m 0 min 0 min 39 W/m 16,1 km/h (3 Bft) 97,87 %
29.12.2019 10:46 0,8 C 0,6 C 0,0 C 88 % 1038,7 hPa 0,0 l/m 0 min 0 min 41 W/m 19,3 km/h (3 Bft) 97,87 %
29.12.2019 10:48 0,7 C 0,6 C 0,0 C 87 % 1038,7 hPa 0,0 l/m 0 min 0 min 45 W/m 16,1 km/h (3 Bft) 100,00 %
29.12.2019 10:50 0,8 C 0,6 C 0,0 C 87 % 1038,7 hPa 0,0 l/m 0 min 0 min 52 W/m 6,4 km/h (2 Bft) 100,00 %
29.12.2019 10:52 0,8 C 0,6 C 0,0 C 87 % 1038,7 hPa 0,0 l/m 0 min 0 min 59 W/m 12,9 km/h (3 Bft) 100,00 %
29.12.2019 10:54 0,8 C 0,6 C 0,0 C 87 % 1038,8 hPa 0,0 l/m 0 min 0 min 70 W/m 12,9 km/h (3 Bft) 93,62 %
29.12.2019 10:56 0,8 C 1,1 C 0,0 C 87 % 1038,8 hPa 0,0 l/m 0 min 0 min 83 W/m 16,1 km/h (3 Bft) 100,00 %
29.12.2019 10:58 0,8 C 1,1 C 0,0 C 87 % 1038,8 hPa 0,0 l/m 0 min 0 min 96 W/m 6,4 km/h (2 Bft) 100,00 %
29.12.2019 11:00 0,8 C 1,1 C 0,6 C 87 % 1038,8 hPa 0,0 l/m 0 min 0 min 107 W/m 3,2 km/h (1 Bft) 100,00 %
29.12.2019 11:02 0,9 C 1,7 C 0,6 C 87 % 1038,8 hPa 0,0 l/m 0 min 0 min 118 W/m 6,4 km/h (2 Bft) 87,23 %
29.12.2019 11:04 0,9 C 1,7 C 0,6 C 87 % 1038,8 hPa 0,0 l/m 0 min 0 min 125 W/m 3,2 km/h (1 Bft) 63,64 %
29.12.2019 11:06 0,9 C 2,2 C 1,1 C 87 % 1038,8 hPa 0,0 l/m 2 min 0 min 134 W/m 6,4 km/h (2 Bft) 100,00 %
29.12.2019 11:08 0,9 C 2,2 C 1,1 C 87 % 1038,8 hPa 0,0 l/m 2 min 0 min 139 W/m 3,2 km/h (1 Bft) 100,00 %
29.12.2019 11:10 1,0 C 2,2 C 1,1 C 87 % 1038,8 hPa 0,0 l/m 0 min 0 min 122 W/m 3,2 km/h (1 Bft) 100,00 %
29.12.2019 11:12 1,1 C 2,2 C 1,1 C 87 % 1038,8 hPa 0,0 l/m 0 min 0 min 106 W/m 6,4 km/h (2 Bft) 95,65 %
29.12.2019 11:14 1,1 C 1,7 C 1,1 C 87 % 1038,7 hPa 0,0 l/m 0 min 0 min 97 W/m 3,2 km/h (1 Bft) 97,73 %
29.12.2019 11:16 1,1 C 1,7 C 1,1 C 87 % 1038,8 hPa 0,0 l/m 0 min 0 min 90 W/m 6,4 km/h (2 Bft) 92,00 %
29.12.2019 11:18 1,2 C 1,7 C 1,1 C 87 % 1038,7 hPa 0,0 l/m 0 min 0 min 90 W/m 16,1 km/h (3 Bft) 97,83 %
29.12.2019 11:20 1,2 C 1,7 C 1,1 C 87 % 1038,7 hPa 0,0 l/m 0 min 0 min 91 W/m 12,9 km/h (3 Bft) 97,92 %
29.12.2019 11:22 1,2 C 1,7 C 1,1 C 87 % 1038,7 hPa 0,0 l/m 0 min 0 min 90 W/m 16,1 km/h (3 Bft) 97,83 %
29.12.2019 11:24 1,2 C 1,7 C 1,1 C 87 % 1038,6 hPa 0,0 l/m 0 min 0 min 89 W/m 16,1 km/h (3 Bft) 97,73 %
29.12.2019 11:26 1,3 C 1,7 C 1,1 C 87 % 1038,5 hPa 0,0 l/m 0 min 0 min 88 W/m 16,1 km/h (3 Bft) 95,74 %
29.12.2019 11:28 1,3 C 1,7 C 1,1 C 86 % 1038,5 hPa 0,0 l/m 0 min 0 min 85 W/m 16,1 km/h (3 Bft) 95,74 %
29.12.2019 11:30 1,3 C 1,1 C 1,1 C 86 % 1038,5 hPa 0,0 l/m 0 min 0 min 84 W/m 19,3 km/h (3 Bft) 95,92 %
29.12.2019 11:32 1,3 C 1,1 C 1,1 C 86 % 1038,5 hPa 0,0 l/m 0 min 0 min 84 W/m 16,1 km/h (3 Bft) 95,83 %
29.12.2019 11:34 1,3 C 1,1 C 1,1 C 86 % 1038,5 hPa 0,0 l/m 0 min 0 min 86 W/m 12,9 km/h (3 Bft) 95,65 %
29.12.2019 11:36 1,4 C 1,7 C 1,1 C 86 % 1038,4 hPa 0,0 l/m 0 min 0 min 87 W/m 12,9 km/h (3 Bft) 95,45 %
29.12.2019 11:38 1,4 C 1,7 C 1,1 C 85 % 1038,5 hPa 0,0 l/m 0 min 0 min 88 W/m 12,9 km/h (3 Bft) 94,00 %
29.12.2019 11:40 1,4 C 1,7 C 1,1 C 86 % 1038,5 hPa 0,0 l/m 0 min 0 min 87 W/m 9,7 km/h (2 Bft) 95,74 %
29.12.2019 11:42 1,4 C 1,7 C 1,1 C 85 % 1038,5 hPa 0,0 l/m 0 min 0 min 85 W/m 19,3 km/h (3 Bft) 91,49 %
29.12.2019 11:44 1,4 C 1,1 C 1,1 C 85 % 1038,4 hPa 0,0 l/m 0 min 0 min 83 W/m 12,9 km/h (3 Bft) 97,67 %
29.12.2019 11:46 1,4 C 1,7 C 1,1 C 85 % 1038,4 hPa 0,0 l/m 0 min 0 min 82 W/m 19,3 km/h (3 Bft) 94,00 %
29.12.2019 11:48 1,5 C 1,7 C 1,1 C 85 % 1038,4 hPa 0,0 l/m 0 min 0 min 82 W/m 22,5 km/h (4 Bft) 95,74 %
29.12.2019 11:50 1,5 C 1,7 C 1,1 C 84 % 1038,4 hPa 0,0 l/m 0 min 0 min 85 W/m 16,1 km/h (3 Bft) 95,74 %
29.12.2019 11:52 1,5 C 1,7 C 1,1 C 84 % 1038,3 hPa 0,0 l/m 0 min 0 min 91 W/m 19,3 km/h (3 Bft) 95,74 %
29.12.2019 11:54 1,5 C 1,7 C 1,1 C 84 % 1038,2 hPa 0,0 l/m 0 min 0 min 100 W/m 16,1 km/h (3 Bft) 95,74 %
29.12.2019 11:56 1,6 C 1,7 C 1,1 C 84 % 1038,2 hPa 0,0 l/m 0 min 0 min 110 W/m 19,3 km/h (3 Bft) 95,35 %
29.12.2019 11:58 1,6 C 1,7 C 1,1 C 84 % 1038,2 hPa 0,0 l/m 0 min 0 min 113 W/m 12,9 km/h (3 Bft) 30,00 %
29.12.2019 12:00 1,6 C 1,7 C 1,1 C 85 % 1038,2 hPa 0,0 l/m 0 min 0 min 126 W/m 19,3 km/h (3 Bft) 95,24 %
29.12.2019 12:02 1,6 C 1,7 C 1,1 C 85 % 1038,1 hPa 0,0 l/m 0 min 0 min 127 W/m 16,1 km/h (3 Bft) 95,74 %
29.12.2019 12:04 1,6 C 1,7 C 1,1 C 84 % 1038,1 hPa 0,0 l/m 0 min 0 min 123 W/m 16,1 km/h (3 Bft) 95,45 %
29.12.2019 12:08 1,6 C 1,7 C 1,7 C 84 % 1038,1 hPa 0,0 l/m 0 min 0 min 115 W/m 19,3 km/h (3 Bft) 96,88 %
29.12.2019 12:10 1,7 C 1,7 C 1,1 C 84 % 1038,0 hPa 0,0 l/m 0 min 0 min 112 W/m 19,3 km/h (3 Bft) 97,87 %
29.12.2019 12:12 1,7 C 1,7 C 1,7 C 84 % 1038,0 hPa 0,0 l/m 0 min 0 min 113 W/m 16,1 km/h (3 Bft) 97,87 %
29.12.2019 12:14 1,7 C 1,7 C 1,1 C 84 % 1038,0 hPa 0,0 l/m 0 min 0 min 116 W/m 22,5 km/h (4 Bft) 100,00 %
29.12.2019 12:16 1,7 C 1,7 C 1,1 C 84 % 1038,0 hPa 0,0 l/m 0 min 0 min 120 W/m 19,3 km/h (3 Bft) 97,67 %
29.12.2019 12:18 1,7 C 2,2 C 1,7 C 84 % 1038,0 hPa 0,0 l/m 0 min 0 min 122 W/m 19,3 km/h (3 Bft) 100,00 %
29.12.2019 12:20 1,8 C 2,2 C 1,1 C 84 % 1037,9 hPa 0,0 l/m 0 min 0 min 123 W/m 22,5 km/h (4 Bft) 97,87 %
29.12.2019 12:22 1,8 C 2,2 C 1,7 C 84 % 1037,9 hPa 0,0 l/m 0 min 0 min 122 W/m 19,3 km/h (3 Bft) 100,00 %
29.12.2019 12:24 1,8 C 2,2 C 1,7 C 84 % 1037,8 hPa 0,0 l/m 0 min 0 min 120 W/m 22,5 km/h (4 Bft) 100,00 %
29.12.2019 12:26 1,8 C 2,2 C 1,7 C 84 % 1037,7 hPa 0,0 l/m 0 min 0 min 120 W/m 19,3 km/h (3 Bft) 100,00 %
29.12.2019 12:28 1,8 C 2,2 C 1,7 C 84 % 1037,6 hPa 0,0 l/m 0 min 0 min 117 W/m 16,1 km/h (3 Bft) 97,96 %
29.12.2019 12:30 1,8 C 2,2 C 1,7 C 84 % 1037,6 hPa 0,0 l/m 0 min 0 min 114 W/m 12,9 km/h (3 Bft) 95,83 %
29.12.2019 12:32 1,9 C 2,2 C 1,7 C 84 % 1037,6 hPa 0,0 l/m 0 min 0 min 109 W/m 22,5 km/h (4 Bft) 97,83 %
29.12.2019 12:34 1,9 C 2,2 C 1,7 C 84 % 1037,6 hPa 0,0 l/m 0 min 0 min 105 W/m 22,5 km/h (4 Bft) 97,73 %
29.12.2019 12:36 1,9 C 2,2 C 1,7 C 84 % 1037,6 hPa 0,0 l/m 0 min 0 min 105 W/m 22,5 km/h (4 Bft) 97,87 %
29.12.2019 12:38 1,9 C 2,2 C 1,7 C 84 % 1037,6 hPa 0,0 l/m 0 min 0 min 105 W/m 16,1 km/h (3 Bft) 98,00 %
29.12.2019 12:40 1,9 C 2,2 C 1,7 C 84 % 1037,6 hPa 0,0 l/m 0 min 0 min 110 W/m 12,9 km/h (3 Bft) 95,65 %
29.12.2019 12:42 1,9 C 2,2 C 1,7 C 84 % 1037,6 hPa 0,0 l/m 0 min 0 min 116 W/m 12,9 km/h (3 Bft) 97,92 %
29.12.2019 12:44 2,0 C 2,2 C 1,7 C 84 % 1037,6 hPa 0,0 l/m 0 min 0 min 128 W/m 6,4 km/h (2 Bft) 93,48 %
29.12.2019 12:46 2,0 C 2,2 C 1,7 C 84 % 1037,6 hPa 0,0 l/m 0 min 0 min 127 W/m 16,1 km/h (3 Bft) 97,87 %
29.12.2019 12:48 2,0 C 2,8 C 1,7 C 84 % 1037,6 hPa 0,0 l/m 0 min 0 min 129 W/m 16,1 km/h (3 Bft) 97,87 %
29.12.2019 12:50 2,1 C 2,8 C 1,7 C 84 % 1037,6 hPa 0,0 l/m 0 min 0 min 132 W/m 16,1 km/h (3 Bft) 97,73 %
29.12.2019 12:52 2,1 C 2,8 C 1,7 C 84 % 1037,6 hPa 0,0 l/m 0 min 0 min 134 W/m 12,9 km/h (3 Bft) 97,96 %
29.12.2019 12:54 2,1 C 2,8 C 2,2 C 84 % 1037,6 hPa 0,0 l/m 0 min 0 min 136 W/m 3,2 km/h (1 Bft) 97,92 %
29.12.2019 12:56 2,1 C 2,8 C 2,2 C 84 % 1037,6 hPa 0,0 l/m 0 min 0 min 140 W/m 6,4 km/h (2 Bft) 95,65 %
29.12.2019 12:58 2,2 C 2,8 C 2,2 C 84 % 1037,6 hPa 0,0 l/m 0 min 0 min 142 W/m 6,4 km/h (2 Bft) 97,73 %
29.12.2019 13:00 2,2 C 2,8 C 2,2 C 84 % 1037,6 hPa 0,0 l/m 0 min 0 min 144 W/m 6,4 km/h (2 Bft) 98,00 %
29.12.2019 13:02 2,2 C 2,8 C 2,2 C 84 % 1037,6 hPa 0,0 l/m 0 min 0 min 146 W/m 16,1 km/h (3 Bft) 95,74 %
29.12.2019 13:04 2,3 C 2,8 C 2,2 C 84 % 1037,6 hPa 0,0 l/m 0 min 0 min 148 W/m 12,9 km/h (3 Bft) 97,87 %
29.12.2019 13:06 2,3 C 3,3 C 2,2 C 83 % 1037,5 hPa 0,0 l/m 0 min 0 min 147 W/m 12,9 km/h (3 Bft) 97,67 %
29.12.2019 13:08 2,3 C 3,3 C 2,2 C 83 % 1037,5 hPa 0,0 l/m 0 min 0 min 146 W/m 16,1 km/h (3 Bft) 96,00 %
29.12.2019 13:10 2,4 C 2,8 C 2,2 C 83 % 1037,5 hPa 0,0 l/m 0 min 0 min 142 W/m 16,1 km/h (3 Bft) 100,00 %
29.12.2019 13:12 2,4 C 2,8 C 2,2 C 83 % 1037,5 hPa 0,0 l/m 0 min 0 min 140 W/m 16,1 km/h (3 Bft) 97,87 %
29.12.2019 13:14 2,4 C 3,3 C 2,2 C 83 % 1037,4 hPa 0,0 l/m 0 min 0 min 139 W/m 16,1 km/h (3 Bft) 100,00 %
29.12.2019 13:16 2,5 C 2,8 C 2,2 C 83 % 1037,4 hPa 0,0 l/m 0 min 0 min 142 W/m 12,9 km/h (3 Bft) 100,00 %
29.12.2019 13:18 2,5 C 2,8 C 2,2 C 83 % 1037,4 hPa 0,0 l/m 2 min 0 min 150 W/m 12,9 km/h (3 Bft) 97,87 %
29.12.2019 13:20 2,5 C 3,3 C 2,2 C 83 % 1037,3 hPa 0,0 l/m 2 min 0 min 149 W/m 16,1 km/h (3 Bft) 100,00 %
29.12.2019 13:22 2,6 C 3,3 C 2,2 C 83 % 1037,4 hPa 0,0 l/m 0 min 0 min 143 W/m 12,9 km/h (3 Bft) 98,00 %
29.12.2019 13:24 2,6 C 3,3 C 2,2 C 83 % 1037,3 hPa 0,0 l/m 0 min 0 min 137 W/m 16,1 km/h (3 Bft) 100,00 %
29.12.2019 13:26 2,6 C 3,3 C 2,2 C 83 % 1037,3 hPa 0,0 l/m 0 min 0 min 132 W/m 12,9 km/h (3 Bft) 100,00 %
29.12.2019 13:28 2,6 C 3,3 C 2,2 C 83 % 1037,3 hPa 0,0 l/m 0 min 0 min 128 W/m 12,9 km/h (3 Bft) 100,00 %
29.12.2019 13:30 2,7 C 3,3 C 2,2 C 83 % 1037,3 hPa 0,0 l/m 0 min 0 min 125 W/m 12,9 km/h (3 Bft) 100,00 %
29.12.2019 13:32 2,7 C 3,3 C 2,2 C 83 % 1037,3 hPa 0,0 l/m 0 min 0 min 127 W/m 12,9 km/h (3 Bft) 100,00 %
29.12.2019 13:34 2,7 C 2,8 C 2,2 C 83 % 1037,3 hPa 0,0 l/m 0 min 0 min 128 W/m 9,7 km/h (2 Bft) 100,00 %
29.12.2019 13:36 2,7 C 3,3 C 2,2 C 83 % 1037,3 hPa 0,0 l/m 0 min 0 min 130 W/m 6,4 km/h (2 Bft) 100,00 %
29.12.2019 13:38 2,7 C 3,3 C 2,2 C 82 % 1037,3 hPa 0,0 l/m 0 min 0 min 127 W/m 6,4 km/h (2 Bft) 97,87 %
29.12.2019 13:40 2,8 C 3,3 C 2,8 C 82 % 1037,2 hPa 0,0 l/m 0 min 0 min 120 W/m 6,4 km/h (2 Bft) 100,00 %
29.12.2019 13:42 2,8 C 3,3 C 2,2 C 82 % 1037,2 hPa 0,0 l/m 0 min 0 min 112 W/m 6,4 km/h (2 Bft) 100,00 %
29.12.2019 13:44 2,8 C 3,3 C 2,2 C 82 % 1037,2 hPa 0,0 l/m 0 min 0 min 105 W/m 6,4 km/h (2 Bft) 98,00 %
29.12.2019 13:46 2,8 C 3,3 C 2,2 C 82 % 1037,1 hPa 0,0 l/m 0 min 0 min 100 W/m 12,9 km/h (3 Bft) 100,00 %
29.12.2019 13:48 2,8 C 2,8 C 2,2 C 82 % 1037,1 hPa 0,0 l/m 0 min 0 min 96 W/m 6,4 km/h (2 Bft) 100,00 %
29.12.2019 13:50 2,8 C 2,8 C 2,2 C 82 % 1037,1 hPa 0,0 l/m 0 min 0 min 93 W/m 16,1 km/h (3 Bft) 100,00 %
29.12.2019 13:52 2,8 C 2,8 C 2,2 C 82 % 1037,0 hPa 0,0 l/m 0 min 0 min 93 W/m 16,1 km/h (3 Bft) 100,00 %
29.12.2019 13:54 2,9 C 2,8 C 2,2 C 82 % 1037,0 hPa 0,0 l/m 0 min 0 min 93 W/m 12,9 km/h (3 Bft) 100,00 %
29.12.2019 13:56 2,9 C 2,8 C 2,2 C 82 % 1036,9 hPa 0,0 l/m 0 min 0 min 94 W/m 19,3 km/h (3 Bft) 100,00 %
29.12.2019 13:58 2,9 C 2,8 C 2,2 C 82 % 1037,0 hPa 0,0 l/m 0 min 0 min 96 W/m 19,3 km/h (3 Bft) 100,00 %
29.12.2019 14:00 2,9 C 2,8 C 2,2 C 82 % 1037,0 hPa 0,0 l/m 0 min 0 min 98 W/m 16,1 km/h (3 Bft) 97,96 %
29.12.2019 14:02 2,9 C 2,8 C 2,2 C 82 % 1037,0 hPa 0,0 l/m 0 min 0 min 102 W/m 16,1 km/h (3 Bft) 100,00 %
29.12.2019 14:04 2,9 C 2,8 C 2,2 C 82 % 1037,0 hPa 0,0 l/m 0 min 0 min 102 W/m 16,1 km/h (3 Bft) 100,00 %
29.12.2019 14:06 3,0 C 3,3 C 2,8 C 82 % 1037,1 hPa 0,0 l/m 0 min 0 min 99 W/m 6,4 km/h (2 Bft) 100,00 %
29.12.2019 14:08 3,0 C 3,3 C 2,2 C 82 % 1037,0 hPa 0,0 l/m 0 min 0 min 96 W/m 16,1 km/h (3 Bft) 95,45 %
29.12.2019 14:10 3,0 C 3,3 C 2,8 C 82 % 1037,1 hPa 0,0 l/m 0 min 0 min 91 W/m 16,1 km/h (3 Bft) 98,00 %
29.12.2019 14:12 3,1 C 3,3 C 2,2 C 82 % 1037,1 hPa 0,0 l/m 0 min 0 min 88 W/m 3,2 km/h (1 Bft) 97,87 %
29.12.2019 14:14 3,1 C 3,3 C 2,2 C 82 % 1037,1 hPa 0,0 l/m 0 min 0 min 84 W/m 12,9 km/h (3 Bft) 97,87 %
29.12.2019 14:16 3,1 C 2,8 C 2,2 C 81 % 1037,0 hPa 0,0 l/m 0 min 0 min 82 W/m 19,3 km/h (3 Bft) 97,67 %
29.12.2019 14:18 3,1 C 2,8 C 2,2 C 81 % 1037,1 hPa 0,0 l/m 0 min 0 min 81 W/m 16,1 km/h (3 Bft) 96,00 %
29.12.2019 14:20 3,1 C 3,3 C 2,8 C 81 % 1037,0 hPa 0,0 l/m 0 min 0 min 81 W/m 12,9 km/h (3 Bft) 95,74 %
29.12.2019 14:22 3,1 C 3,3 C 2,8 C 81 % 1037,0 hPa 0,0 l/m 0 min 0 min 81 W/m 16,1 km/h (3 Bft) 97,87 %
29.12.2019 14:24 3,1 C 3,3 C 2,8 C 81 % 1037,0 hPa 0,0 l/m 0 min 0 min 82 W/m 19,3 km/h (3 Bft) 97,87 %
29.12.2019 14:26 3,1 C 3,3 C 2,8 C 81 % 1037,0 hPa 0,0 l/m 0 min 0 min 83 W/m 6,4 km/h (2 Bft) 95,35 %
29.12.2019 14:28 3,1 C 3,3 C 2,8 C 81 % 1036,9 hPa 0,0 l/m 0 min 0 min 82 W/m 16,1 km/h (3 Bft) 96,00 %
29.12.2019 14:30 3,2 C 3,3 C 2,8 C 80 % 1037,0 hPa 0,0 l/m 0 min 0 min 79 W/m 6,4 km/h (2 Bft) 93,62 %
29.12.2019 14:32 3,2 C 3,3 C 2,8 C 80 % 1036,9 hPa 0,0 l/m 0 min 0 min 77 W/m 19,3 km/h (3 Bft) 95,74 %
29.12.2019 14:34 3,2 C 3,3 C 2,8 C 80 % 1036,9 hPa 0,0 l/m 0 min 0 min 75 W/m 16,1 km/h (3 Bft) 95,74 %
29.12.2019 14:36 3,2 C 3,3 C 2,8 C 80 % 1036,9 hPa 0,0 l/m 0 min 0 min 70 W/m 12,9 km/h (3 Bft) 95,74 %
29.12.2019 14:38 3,2 C 3,3 C 2,2 C 80 % 1036,9 hPa 0,0 l/m 0 min 0 min 65 W/m 16,1 km/h (3 Bft) 95,35 %
29.12.2019 14:40 3,2 C 3,3 C 2,2 C 80 % 1036,9 hPa 0,0 l/m 0 min 0 min 59 W/m 12,9 km/h (3 Bft) 95,74 %
29.12.2019 14:42 3,2 C 3,3 C 2,2 C 80 % 1036,9 hPa 0,0 l/m 0 min 0 min 54 W/m 6,4 km/h (2 Bft) 93,62 %
29.12.2019 14:44 3,3 C 3,3 C 2,2 C 80 % 1036,9 hPa 0,0 l/m 0 min 0 min 51 W/m 6,4 km/h (2 Bft) 96,00 %
29.12.2019 14:46 3,3 C 2,8 C 2,2 C 80 % 1037,0 hPa 0,0 l/m 0 min 0 min 49 W/m 16,1 km/h (3 Bft) 95,65 %
29.12.2019 14:48 3,3 C 2,8 C 2,2 C 80 % 1037,0 hPa 0,0 l/m 0 min 0 min 47 W/m 12,9 km/h (3 Bft) 95,74 %
29.12.2019 14:50 3,3 C 2,8 C 2,2 C 80 % 1037,0 hPa 0,0 l/m 0 min 0 min 43 W/m 6,4 km/h (2 Bft) 93,62 %
29.12.2019 14:52 3,3 C 2,8 C 2,2 C 80 % 1036,9 hPa 0,0 l/m 0 min 0 min 42 W/m 12,9 km/h (3 Bft) 93,62 %
29.12.2019 14:54 3,3 C 2,8 C 2,2 C 80 % 1036,9 hPa 0,0 l/m 0 min 0 min 42 W/m 16,1 km/h (3 Bft) 93,62 %
29.12.2019 14:56 3,3 C 2,8 C 2,2 C 80 % 1036,9 hPa 0,0 l/m 0 min 0 min 42 W/m 16,1 km/h (3 Bft) 93,62 %
29.12.2019 14:58 3,3 C 2,8 C 2,2 C 80 % 1036,9 hPa 0,0 l/m 0 min 0 min 42 W/m 6,4 km/h (2 Bft) 91,49 %
29.12.2019 15:00 3,3 C 2,8 C 2,2 C 80 % 1036,9 hPa 0,0 l/m 0 min 0 min 40 W/m 12,9 km/h (3 Bft) 62,79 %
29.12.2019 15:02 3,3 C 2,8 C 2,2 C 80 % 1036,9 hPa 0,0 l/m 0 min 0 min 40 W/m 6,4 km/h (2 Bft) 77,27 %
29.12.2019 15:04 3,3 C 2,8 C 2,2 C 80 % 1036,8 hPa 0,0 l/m 0 min 0 min 40 W/m 16,1 km/h (3 Bft) 92,00 %
29.12.2019 15:06 3,3 C 2,8 C 2,2 C 80 % 1036,8 hPa 0,0 l/m 0 min 0 min 40 W/m 12,9 km/h (3 Bft) 93,62 %
29.12.2019 15:08 3,2 C 2,8 C 2,2 C 80 % 1036,9 hPa 0,0 l/m 0 min 0 min 40 W/m 12,9 km/h (3 Bft) 95,74 %
29.12.2019 15:10 3,3 C 2,8 C 2,2 C 80 % 1036,8 hPa 0,0 l/m 0 min 0 min 42 W/m 16,1 km/h (3 Bft) 95,74 %
29.12.2019 15:12 3,2 C 2,8 C 2,2 C 80 % 1036,8 hPa 0,0 l/m 0 min 0 min 42 W/m 12,9 km/h (3 Bft) 90,70 %
29.12.2019 15:14 3,3 C 2,8 C 2,2 C 80 % 1036,7 hPa 0,0 l/m 0 min 0 min 44 W/m 12,9 km/h (3 Bft) 95,74 %
29.12.2019 15:16 3,3 C 2,8 C 2,2 C 80 % 1036,7 hPa 0,0 l/m 0 min 0 min 44 W/m 6,4 km/h (2 Bft) 94,00 %
29.12.2019 15:18 3,3 C 2,8 C 2,2 C 80 % 1036,7 hPa 0,0 l/m 0 min 0 min 44 W/m 12,9 km/h (3 Bft) 95,74 %
29.12.2019 15:20 3,3 C 2,8 C 2,2 C 80 % 1036,7 hPa 0,0 l/m 0 min 0 min 44 W/m 6,4 km/h (2 Bft) 95,74 %
29.12.2019 15:22 3,3 C 2,8 C 2,2 C 80 % 1036,7 hPa 0,0 l/m 0 min 0 min 44 W/m 6,4 km/h (2 Bft) 97,87 %
29.12.2019 15:24 3,3 C 2,8 C 2,2 C 81 % 1036,8 hPa 0,0 l/m 0 min 0 min 44 W/m 12,9 km/h (3 Bft) 97,67 %
29.12.2019 15:26 3,3 C 2,8 C 2,2 C 81 % 1036,8 hPa 0,0 l/m 0 min 0 min 43 W/m 6,4 km/h (2 Bft) 92,00 %
29.12.2019 15:28 3,3 C 2,8 C 2,2 C 81 % 1036,8 hPa 0,0 l/m 0 min 0 min 41 W/m 12,9 km/h (3 Bft) 97,87 %
29.12.2019 15:30 3,3 C 2,8 C 2,2 C 81 % 1036,8 hPa 0,0 l/m 0 min 0 min 39 W/m 3,2 km/h (1 Bft) 97,87 %
29.12.2019 15:32 3,3 C 2,8 C 2,2 C 81 % 1036,8 hPa 0,0 l/m 0 min 0 min 37 W/m 3,2 km/h (1 Bft) 97,73 %
29.12.2019 15:34 3,3 C 2,8 C 2,2 C 81 % 1036,8 hPa 0,0 l/m 0 min 0 min 36 W/m 6,4 km/h (2 Bft) 100,00 %
29.12.2019 15:36 3,3 C 2,8 C 2,2 C 81 % 1036,8 hPa 0,0 l/m 0 min 0 min 35 W/m 6,4 km/h (2 Bft) 100,00 %
29.12.2019 15:38 3,3 C 2,8 C 2,2 C 81 % 1036,8 hPa 0,0 l/m 0 min 0 min 34 W/m 6,4 km/h (2 Bft) 100,00 %
29.12.2019 15:40 3,3 C 2,8 C 2,2 C 81 % 1036,8 hPa 0,0 l/m 0 min 0 min 33 W/m 6,4 km/h (2 Bft) 97,87 %
29.12.2019 15:42 3,3 C 2,8 C 2,2 C 81 % 1036,8 hPa 0,0 l/m 0 min 0 min 32 W/m 0,0 km/h (0 Bft) 100,00 %
29.12.2019 15:44 3,3 C 2,8 C 2,2 C 81 % 1036,9 hPa 0,0 l/m 0 min 0 min 32 W/m 0,0 km/h (0 Bft) 100,00 %
29.12.2019 15:46 3,3 C 2,8 C 2,2 C 81 % 1036,8 hPa 0,0 l/m 0 min 0 min 32 W/m 6,4 km/h (2 Bft) 100,00 %
29.12.2019 15:48 3,3 C 2,8 C 2,2 C 81 % 1036,8 hPa 0,0 l/m 0 min 0 min 33 W/m 3,2 km/h (1 Bft) 100,00 %
29.12.2019 15:50 3,2 C 2,8 C 2,2 C 81 % 1036,7 hPa 0,0 l/m 0 min 0 min 32 W/m 6,4 km/h (2 Bft) 97,67 %
29.12.2019 15:52 3,2 C 2,8 C 1,7 C 81 % 1036,7 hPa 0,0 l/m 0 min 0 min 31 W/m 6,4 km/h (2 Bft) 100,00 %
29.12.2019 15:54 3,2 C 2,8 C 1,7 C 81 % 1036,7 hPa 0,0 l/m 0 min 0 min 28 W/m 6,4 km/h (2 Bft) 100,00 %
29.12.2019 15:56 3,2 C 2,8 C 1,7 C 80 % 1036,7 hPa 0,0 l/m 0 min 0 min 26 W/m 6,4 km/h (2 Bft) 100,00 %
29.12.2019 15:58 3,2 C 2,8 C 1,7 C 80 % 1036,6 hPa 0,0 l/m 0 min 0 min 25 W/m 3,2 km/h (1 Bft) 100,00 %
29.12.2019 16:00 3,2 C 2,8 C 1,7 C 80 % 1036,6 hPa 0,0 l/m 0 min 0 min 23 W/m 6,4 km/h (2 Bft) 98,00 %
29.12.2019 16:02 3,2 C 2,2 C 1,7 C 80 % 1036,6 hPa 0,0 l/m 0 min 0 min 21 W/m 6,4 km/h (2 Bft) 100,00 %
29.12.2019 16:04 3,2 C 2,2 C 1,7 C 80 % 1036,6 hPa 0,0 l/m 0 min 0 min 19 W/m 16,1 km/h (3 Bft) 93,62 %
29.12.2019 16:06 3,1 C 2,2 C 1,7 C 80 % 1036,6 hPa 0,0 l/m 0 min 0 min 18 W/m 6,4 km/h (2 Bft) 100,00 %
29.12.2019 16:08 3,1 C 2,2 C 1,7 C 80 % 1036,7 hPa 0,0 l/m 0 min 0 min 18 W/m 12,9 km/h (3 Bft) 100,00 %
29.12.2019 16:10 3,1 C 2,2 C 1,7 C 80 % 1036,7 hPa 0,0 l/m 0 min 0 min 16 W/m 12,9 km/h (3 Bft) 100,00 %
29.12.2019 16:12 3,1 C 2,2 C 1,7 C 80 % 1036,6 hPa 0,0 l/m 0 min 0 min 16 W/m 6,4 km/h (2 Bft) 100,00 %
29.12.2019 16:14 3,1 C 2,2 C 1,7 C 80 % 1036,7 hPa 0,0 l/m 0 min 0 min 14 W/m 19,3 km/h (3 Bft) 100,00 %
29.12.2019 16:16 3,1 C 2,2 C 1,7 C 80 % 1036,6 hPa 0,0 l/m 0 min 0 min 12 W/m 6,4 km/h (2 Bft) 100,00 %
29.12.2019 16:18 3,0 C 2,2 C 1,7 C 80 % 1036,6 hPa 0,0 l/m 0 min 0 min 12 W/m 16,1 km/h (3 Bft) 100,00 %
29.12.2019 16:20 3,0 C 2,2 C 1,7 C 80 % 1036,6 hPa 0,0 l/m 0 min 0 min 11 W/m 0,0 km/h (0 Bft) 100,00 %
29.12.2019 16:22 2,9 C 2,2 C 1,7 C 80 % 1036,6 hPa 0,0 l/m 0 min 0 min 8 W/m 6,4 km/h (2 Bft) 100,00 %
29.12.2019 16:24 2,9 C 2,2 C 1,1 C 80 % 1036,6 hPa 0,0 l/m 0 min 0 min 7 W/m 6,4 km/h (2 Bft) 100,00 %
29.12.2019 16:26 2,9 C 2,2 C 1,1 C 80 % 1036,6 hPa 0,0 l/m 0 min 0 min 6 W/m 16,1 km/h (3 Bft) 100,00 %
29.12.2019 16:28 2,9 C 2,2 C 1,1 C 81 % 1036,6 hPa 0,0 l/m 0 min 0 min 5 W/m 12,9 km/h (3 Bft) 97,87 %
29.12.2019 16:30 2,9 C 2,2 C 1,1 C 81 % 1036,6 hPa 0,0 l/m 0 min 0 min 3 W/m 6,4 km/h (2 Bft) 97,87 %
29.12.2019 16:32 2,8 C 2,2 C 1,1 C 81 % 1036,6 hPa 0,0 l/m 0 min 0 min 0 W/m 12,9 km/h (3 Bft) 100,00 %
29.12.2019 16:34 2,8 C 2,2 C 1,1 C 81 % 1036,6 hPa 0,0 l/m 0 min 0 min 0 W/m 6,4 km/h (2 Bft) 100,00 %
29.12.2019 16:36 2,8 C 2,2 C 1,1 C 80 % 1036,6 hPa 0,0 l/m 0 min 0 min 0 W/m 12,9 km/h (3 Bft) 100,00 %
29.12.2019 16:38 2,8 C 2,2 C 1,1 C 80 % 1036,6 hPa 0,0 l/m 0 min 0 min 0 W/m 6,4 km/h (2 Bft) 97,87 %
29.12.2019 16:42 2,7 C 2,2 C 1,1 C 80 % 1036,6 hPa 0,0 l/m 0 min 0 min 0 W/m 12,9 km/h (3 Bft) 100,00 %
29.12.2019 16:44 2,7 C 2,2 C 1,1 C 80 % 1036,6 hPa 0,0 l/m 0 min 0 min 0 W/m 12,9 km/h (3 Bft) 100,00 %
29.12.2019 16:46 2,7 C 2,2 C 1,1 C 80 % 1036,6 hPa 0,0 l/m 0 min 0 min 0 W/m 16,1 km/h (3 Bft) 100,00 %
29.12.2019 16:48 2,7 C 2,2 C 1,1 C 80 % 1036,6 hPa 0,0 l/m 0 min 0 min 0 W/m 12,9 km/h (3 Bft) 100,00 %
29.12.2019 16:50 2,7 C 2,2 C 1,7 C 80 % 1036,5 hPa 0,0 l/m 0 min 0 min 0 W/m 12,9 km/h (3 Bft) 100,00 %
29.12.2019 16:52 2,7 C 2,2 C 1,7 C 80 % 1036,5 hPa 0,0 l/m 0 min 0 min 0 W/m 6,4 km/h (2 Bft) 100,00 %
29.12.2019 16:54 2,7 C 2,2 C 1,7 C 80 % 1036,6 hPa 0,0 l/m 0 min 0 min 0 W/m 6,4 km/h (2 Bft) 97,87 %
29.12.2019 16:56 2,7 C 2,2 C 1,7 C 80 % 1036,6 hPa 0,0 l/m 0 min 0 min 0 W/m 9,7 km/h (2 Bft) 97,87 %
29.12.2019 16:58 2,7 C 2,2 C 1,7 C 80 % 1036,6 hPa 0,0 l/m 0 min 0 min 0 W/m 12,9 km/h (3 Bft) 100,00 %
29.12.2019 17:00 2,7 C 2,2 C 1,7 C 80 % 1036,6 hPa 0,0 l/m 0 min 0 min 0 W/m 6,4 km/h (2 Bft) 100,00 %
29.12.2019 17:02 2,7 C 2,2 C 1,7 C 80 % 1036,6 hPa 0,0 l/m 0 min 0 min 0 W/m 12,9 km/h (3 Bft) 97,87 %
29.12.2019 17:04 2,7 C 2,2 C 1,7 C 80 % 1036,7 hPa 0,0 l/m 0 min 0 min 0 W/m 12,9 km/h (3 Bft) 97,87 %
29.12.2019 17:06 2,7 C 2,2 C 1,7 C 80 % 1036,7 hPa 0,0 l/m 0 min 0 min 0 W/m 6,4 km/h (2 Bft) 97,87 %
29.12.2019 17:08 2,7 C 2,2 C 1,7 C 80 % 1036,6 hPa 0,0 l/m 0 min 0 min 0 W/m 16,1 km/h (3 Bft) 100,00 %
29.12.2019 17:10 2,7 C 2,2 C 1,7 C 80 % 1036,6 hPa 0,0 l/m 0 min 0 min 0 W/m 9,7 km/h (2 Bft) 97,83 %
29.12.2019 17:12 2,7 C 2,2 C 1,7 C 80 % 1036,6 hPa 0,0 l/m 0 min 0 min 0 W/m 6,4 km/h (2 Bft) 97,87 %
29.12.2019 17:14 2,7 C 2,2 C 1,7 C 80 % 1036,6 hPa 0,0 l/m 0 min 0 min 0 W/m 16,1 km/h (3 Bft) 97,87 %
29.12.2019 17:16 2,7 C 2,2 C 1,1 C 80 % 1036,6 hPa 0,0 l/m 0 min 0 min 0 W/m 16,1 km/h (3 Bft) 97,87 %
29.12.2019 17:18 2,7 C 2,2 C 1,1 C 80 % 1036,7 hPa 0,0 l/m 0 min 0 min 0 W/m 16,1 km/h (3 Bft) 97,87 %
29.12.2019 17:20 2,7 C 2,2 C 1,1 C 80 % 1036,7 hPa 0,0 l/m 0 min 0 min 0 W/m 16,1 km/h (3 Bft) 95,65 %
29.12.2019 17:22 2,7 C 2,2 C 1,1 C 80 % 1036,8 hPa 0,0 l/m 0 min 0 min 0 W/m 6,4 km/h (2 Bft) 97,87 %
29.12.2019 17:24 2,7 C 1,7 C 1,1 C 80 % 1036,8 hPa 0,0 l/m 0 min 0 min 0 W/m 6,4 km/h (2 Bft) 97,87 %
29.12.2019 17:26 2,7 C 1,7 C 1,1 C 80 % 1036,8 hPa 0,0 l/m 0 min 0 min 0 W/m 12,9 km/h (3 Bft) 97,87 %
29.12.2019 17:28 2,7 C 1,7 C 1,1 C 80 % 1036,8 hPa 0,0 l/m 0 min 0 min 0 W/m 19,3 km/h (3 Bft) 97,87 %
29.12.2019 17:30 2,6 C 1,7 C 1,1 C 80 % 1036,8 hPa 0,0 l/m 0 min 0 min 0 W/m 12,9 km/h (3 Bft) 93,62 %
29.12.2019 17:32 2,6 C 1,7 C 1,1 C 80 % 1036,8 hPa 0,0 l/m 0 min 0 min 0 W/m 12,9 km/h (3 Bft) 93,62 %
29.12.2019 17:34 2,6 C 1,7 C 1,1 C 80 % 1036,8 hPa 0,0 l/m 0 min 0 min 0 W/m 12,9 km/h (3 Bft) 95,65 %
29.12.2019 17:36 2,6 C 2,2 C 1,1 C 80 % 1036,8 hPa 0,0 l/m 0 min 0 min 0 W/m 12,9 km/h (3 Bft) 91,49 %
29.12.2019 17:38 2,6 C 2,2 C 1,1 C 80 % 1036,9 hPa 0,0 l/m 0 min 0 min 0 W/m 12,9 km/h (3 Bft) 93,62 %
29.12.2019 17:40 2,6 C 2,2 C 1,1 C 80 % 1036,9 hPa 0,0 l/m 0 min 0 min 0 W/m 6,4 km/h (2 Bft) 93,62 %
29.12.2019 17:42 2,6 C 2,2 C 1,1 C 80 % 1036,8 hPa 0,0 l/m 0 min 0 min 0 W/m 6,4 km/h (2 Bft) 91,49 %
29.12.2019 17:44 2,6 C 2,2 C 1,1 C 80 % 1036,8 hPa 0,0 l/m 0 min 0 min 0 W/m 12,9 km/h (3 Bft) 93,48 %
29.12.2019 17:46 2,6 C 2,2 C 1,1 C 80 % 1036,8 hPa 0,0 l/m 0 min 0 min 0 W/m 12,9 km/h (3 Bft) 93,62 %
29.12.2019 17:48 2,6 C 2,2 C 1,1 C 80 % 1036,8 hPa 0,0 l/m 0 min 0 min 0 W/m 6,4 km/h (2 Bft) 91,49 %
29.12.2019 17:50 2,6 C 2,2 C 1,1 C 80 % 1036,8 hPa 0,0 l/m 0 min 0 min 0 W/m 12,9 km/h (3 Bft) 93,62 %
29.12.2019 17:52 2,6 C 2,2 C 1,7 C 80 % 1036,7 hPa 0,0 l/m 0 min 0 min 0 W/m 6,4 km/h (2 Bft) 91,49 %
29.12.2019 17:54 2,6 C 2,2 C 1,7 C 80 % 1036,7 hPa 0,0 l/m 0 min 0 min 0 W/m 6,4 km/h (2 Bft) 87,23 %
29.12.2019 17:56 2,6 C 2,2 C 1,7 C 80 % 1036,7 hPa 0,0 l/m 0 min 0 min 0 W/m 6,4 km/h (2 Bft) 93,48 %
29.12.2019 17:58 2,7 C 2,2 C 1,7 C 80 % 1036,7 hPa 0,0 l/m 0 min 0 min 0 W/m 3,2 km/h (1 Bft) 93,62 %
29.12.2019 18:00 2,7 C 2,2 C 1,7 C 80 % 1036,6 hPa 0,0 l/m 0 min 0 min 0 W/m 12,9 km/h (3 Bft) 93,62 %
29.12.2019 18:02 2,7 C 2,2 C 1,7 C 80 % 1036,6 hPa 0,0 l/m 0 min 0 min 0 W/m 12,9 km/h (3 Bft) 93,62 %
29.12.2019 18:04 2,7 C 2,2 C 1,7 C 80 % 1036,6 hPa 0,0 l/m 0 min 0 min 0 W/m 16,1 km/h (3 Bft) 95,74 %
29.12.2019 18:08 2,7 C 2,2 C 1,7 C 80 % 1036,5 hPa 0,0 l/m 0 min 0 min 0 W/m 6,4 km/h (2 Bft) 95,70 %
29.12.2019 18:10 2,7 C 2,2 C 1,7 C 80 % 1036,5 hPa 0,0 l/m 0 min 0 min 0 W/m 16,1 km/h (3 Bft) 93,62 %
29.12.2019 18:12 2,7 C 2,2 C 1,7 C 80 % 1036,5 hPa 0,0 l/m 0 min 0 min 0 W/m 22,5 km/h (4 Bft) 93,62 %
29.12.2019 18:14 2,8 C 2,2 C 1,7 C 80 % 1036,5 hPa 0,0 l/m 0 min 0 min 0 W/m 16,1 km/h (3 Bft) 93,62 %
29.12.2019 18:16 2,8 C 2,2 C 1,7 C 80 % 1036,5 hPa 0,0 l/m 0 min 0 min 0 W/m 6,4 km/h (2 Bft) 97,87 %
29.12.2019 18:18 2,8 C 2,2 C 1,7 C 80 % 1036,5 hPa 0,0 l/m 0 min 0 min 0 W/m 22,5 km/h (4 Bft) 97,87 %
29.12.2019 18:20 2,8 C 2,2 C 1,7 C 80 % 1036,5 hPa 0,0 l/m 0 min 0 min 0 W/m 12,9 km/h (3 Bft) 97,83 %
29.12.2019 18:22 2,8 C 2,2 C 1,7 C 80 % 1036,5 hPa 0,0 l/m 0 min 0 min 0 W/m 19,3 km/h (3 Bft) 97,87 %
29.12.2019 18:24 2,8 C 2,2 C 1,7 C 80 % 1036,4 hPa 0,0 l/m 0 min 0 min 0 W/m 12,9 km/h (3 Bft) 97,87 %
29.12.2019 18:26 2,8 C 2,2 C 1,7 C 80 % 1036,4 hPa 0,0 l/m 0 min 0 min 0 W/m 19,3 km/h (3 Bft) 97,87 %
29.12.2019 18:28 2,9 C 2,2 C 1,7 C 80 % 1036,4 hPa 0,0 l/m 0 min 0 min 0 W/m 6,4 km/h (2 Bft) 97,87 %
29.12.2019 18:30 2,9 C 2,2 C 1,7 C 80 % 1036,4 hPa 0,0 l/m 0 min 0 min 0 W/m 6,4 km/h (2 Bft) 97,87 %
29.12.2019 18:32 2,9 C 2,2 C 1,7 C 80 % 1036,5 hPa 0,0 l/m 0 min 0 min 0 W/m 3,2 km/h (1 Bft) 97,83 %
29.12.2019 18:34 2,9 C 2,2 C 1,7 C 80 % 1036,5 hPa 0,0 l/m 0 min 0 min 0 W/m 6,4 km/h (2 Bft) 97,87 %
29.12.2019 18:36 2,9 C 2,2 C 1,7 C 80 % 1036,5 hPa 0,0 l/m 0 min 0 min 0 W/m 3,2 km/h (1 Bft) 97,87 %
29.12.2019 18:38 2,9 C 2,2 C 1,7 C 80 % 1036,5 hPa 0,0 l/m 0 min 0 min 0 W/m 3,2 km/h (1 Bft) 100,00 %
29.12.2019 18:40 2,9 C 2,2 C 1,7 C 80 % 1036,5 hPa 0,0 l/m 0 min 0 min 0 W/m 6,4 km/h (2 Bft) 97,87 %
29.12.2019 18:42 2,9 C 2,2 C 1,7 C 80 % 1036,5 hPa 0,0 l/m 0 min 0 min 0 W/m 3,2 km/h (1 Bft) 100,00 %
29.12.2019 18:44 2,9 C 2,2 C 1,7 C 80 % 1036,5 hPa 0,0 l/m 0 min 0 min 0 W/m 3,2 km/h (1 Bft) 97,87 %
29.12.2019 18:46 2,9 C 2,2 C 1,7 C 80 % 1036,5 hPa 0,0 l/m 0 min 0 min 0 W/m 12,9 km/h (3 Bft) 93,62 %
29.12.2019 18:48 2,9 C 2,2 C 1,7 C 80 % 1036,4 hPa 0,0 l/m 0 min 0 min 0 W/m 12,9 km/h (3 Bft) 59,09 %
29.12.2019 18:50 2,9 C 2,2 C 1,7 C 80 % 1036,4 hPa 0,0 l/m 0 min 0 min 0 W/m 12,9 km/h (3 Bft) 100,00 %
29.12.2019 18:52 2,9 C 2,2 C 1,7 C 80 % 1036,3 hPa 0,0 l/m 0 min 0 min 0 W/m 12,9 km/h (3 Bft) 100,00 %
29.12.2019 18:54 2,9 C 2,2 C 1,7 C 80 % 1036,2 hPa 0,0 l/m 0 min 0 min 0 W/m 19,3 km/h (3 Bft) 100,00 %
29.12.2019 18:56 2,9 C 2,2 C 1,7 C 80 % 1036,2 hPa 0,0 l/m 0 min 0 min 0 W/m 6,4 km/h (2 Bft) 100,00 %
29.12.2019 18:58 2,9 C 2,2 C 1,7 C 80 % 1036,3 hPa 0,0 l/m 0 min 0 min 0 W/m 6,4 km/h (2 Bft) 100,00 %
29.12.2019 19:00 2,9 C 2,2 C 1,7 C 80 % 1036,3 hPa 0,0 l/m 0 min 0 min 0 W/m 6,4 km/h (2 Bft) 100,00 %
29.12.2019 19:02 2,9 C 2,2 C 1,7 C 80 % 1036,3 hPa 0,0 l/m 0 min 0 min 0 W/m 22,5 km/h (4 Bft) 100,00 %
29.12.2019 19:04 2,9 C 2,2 C 1,7 C 80 % 1036,3 hPa 0,0 l/m 0 min 0 min 0 W/m 19,3 km/h (3 Bft) 100,00 %
29.12.2019 19:06 2,9 C 2,2 C 1,7 C 80 % 1036,3 hPa 0,0 l/m 0 min 0 min 0 W/m 16,1 km/h (3 Bft) 100,00 %
29.12.2019 19:08 2,9 C 2,2 C 1,7 C 80 % 1036,2 hPa 0,0 l/m 0 min 0 min 0 W/m 19,3 km/h (3 Bft) 100,00 %
29.12.2019 19:10 2,9 C 2,2 C 1,7 C 80 % 1036,2 hPa 0,0 l/m 0 min 0 min 0 W/m 16,1 km/h (3 Bft) 100,00 %
29.12.2019 19:12 2,9 C 2,2 C 1,7 C 80 % 1036,1 hPa 0,0 l/m 0 min 0 min 0 W/m 25,7 km/h (4 Bft) 100,00 %
29.12.2019 19:14 2,9 C 2,2 C 1,7 C 80 % 1036,2 hPa 0,0 l/m 0 min 0 min 0 W/m 12,9 km/h (3 Bft) 100,00 %
29.12.2019 19:16 2,9 C 2,2 C 1,7 C 80 % 1036,2 hPa 0,0 l/m 0 min 0 min 0 W/m 12,9 km/h (3 Bft) 100,00 %
29.12.2019 19:18 2,9 C 2,2 C 1,7 C 80 % 1036,2 hPa 0,0 l/m 0 min 0 min 0 W/m 16,1 km/h (3 Bft) 100,00 %
29.12.2019 19:20 2,9 C 2,2 C 1,7 C 80 % 1036,2 hPa 0,0 l/m 0 min 0 min 0 W/m 16,1 km/h (3 Bft) 100,00 %
29.12.2019 19:22 2,9 C 2,2 C 1,7 C 80 % 1036,3 hPa 0,0 l/m 0 min 0 min 0 W/m 16,1 km/h (3 Bft) 100,00 %
29.12.2019 19:24 2,9 C 2,2 C 1,7 C 80 % 1036,3 hPa 0,0 l/m 0 min 0 min 0 W/m 16,1 km/h (3 Bft) 95,74 %
29.12.2019 19:26 2,9 C 2,2 C 1,7 C 80 % 1036,4 hPa 0,0 l/m 0 min 0 min 0 W/m 16,1 km/h (3 Bft) 97,87 %
29.12.2019 19:28 2,9 C 2,2 C 1,7 C 80 % 1036,4 hPa 0,0 l/m 0 min 0 min 0 W/m 19,3 km/h (3 Bft) 100,00 %
29.12.2019 19:30 2,9 C 2,2 C 1,7 C 80 % 1036,3 hPa 0,0 l/m 0 min 0 min 0 W/m 19,3 km/h (3 Bft) 97,87 %
29.12.2019 19:32 2,9 C 2,2 C 1,7 C 80 % 1036,3 hPa 0,0 l/m 0 min 0 min 0 W/m 19,3 km/h (3 Bft) 97,87 %
29.12.2019 19:34 2,9 C 2,2 C 1,7 C 80 % 1036,3 hPa 0,0 l/m 0 min 0 min 0 W/m 22,5 km/h (4 Bft) 100,00 %
29.12.2019 19:36 2,9 C 2,2 C 1,7 C 80 % 1036,3 hPa 0,0 l/m 0 min 0 min 0 W/m 19,3 km/h (3 Bft) 100,00 %
29.12.2019 19:38 2,9 C 2,2 C 1,7 C 80 % 1036,4 hPa 0,0 l/m 0 min 0 min 0 W/m 22,5 km/h (4 Bft) 100,00 %
29.12.2019 19:40 2,8 C 2,2 C 1,7 C 80 % 1036,3 hPa 0,0 l/m 0 min 0 min 0 W/m 16,1 km/h (3 Bft) 100,00 %
29.12.2019 19:42 2,8 C 2,2 C 1,1 C 80 % 1036,3 hPa 0,0 l/m 0 min 0 min 0 W/m 19,3 km/h (3 Bft) 100,00 %
29.12.2019 19:44 2,8 C 2,2 C 1,1 C 80 % 1036,3 hPa 0,0 l/m 0 min 0 min 0 W/m 25,7 km/h (4 Bft) 100,00 %
29.12.2019 19:46 2,8 C 2,2 C 1,1 C 80 % 1036,3 hPa 0,0 l/m 0 min 0 min 0 W/m 16,1 km/h (3 Bft) 95,74 %
29.12.2019 19:48 2,8 C 2,2 C 1,1 C 80 % 1036,4 hPa 0,0 l/m 0 min 0 min 0 W/m 25,7 km/h (4 Bft) 100,00 %
29.12.2019 19:50 2,7 C 2,2 C 1,1 C 80 % 1036,4 hPa 0,0 l/m 0 min 0 min 0 W/m 25,7 km/h (4 Bft) 97,87 %
29.12.2019 19:52 2,7 C 1,7 C 1,1 C 80 % 1036,3 hPa 0,0 l/m 0 min 0 min 0 W/m 19,3 km/h (3 Bft) 97,83 %
29.12.2019 19:54 2,7 C 1,7 C 1,1 C 80 % 1036,4 hPa 0,0 l/m 0 min 0 min 0 W/m 19,3 km/h (3 Bft) 100,00 %
29.12.2019 19:56 2,7 C 1,7 C 1,1 C 80 % 1036,4 hPa 0,0 l/m 0 min 0 min 0 W/m 22,5 km/h (4 Bft) 100,00 %
29.12.2019 19:58 2,7 C 1,7 C 1,1 C 80 % 1036,4 hPa 0,0 l/m 0 min 0 min 0 W/m 19,3 km/h (3 Bft) 97,87 %
29.12.2019 20:00 2,6 C 1,7 C 1,1 C 81 % 1036,4 hPa 0,0 l/m 0 min 0 min 0 W/m 25,7 km/h (4 Bft) 97,87 %
29.12.2019 20:02 2,6 C 1,7 C 1,1 C 81 % 1036,4 hPa 0,0 l/m 0 min 0 min 0 W/m 19,3 km/h (3 Bft) 95,74 %
29.12.2019 20:04 2,6 C 1,7 C 1,1 C 81 % 1036,4 hPa 0,0 l/m 0 min 0 min 0 W/m 19,3 km/h (3 Bft) 97,83 %
29.12.2019 20:06 2,6 C 1,7 C 1,1 C 81 % 1036,4 hPa 0,0 l/m 0 min 0 min 0 W/m 25,7 km/h (4 Bft) 97,87 %
29.12.2019 20:08 2,6 C 1,7 C 1,1 C 81 % 1036,4 hPa 0,0 l/m 0 min 0 min 0 W/m 19,3 km/h (3 Bft) 97,87 %
29.12.2019 20:10 2,6 C 2,2 C 1,1 C 81 % 1036,4 hPa 0,0 l/m 0 min 0 min 0 W/m 29,0 km/h (5 Bft) 97,87 %
29.12.2019 20:12 2,6 C 1,7 C 1,1 C 81 % 1036,4 hPa 0,0 l/m 0 min 0 min 0 W/m 16,1 km/h (3 Bft) 95,74 %
29.12.2019 20:14 2,5 C 1,7 C 1,1 C 81 % 1036,4 hPa 0,0 l/m 0 min 0 min 0 W/m 16,1 km/h (3 Bft) 95,74 %
29.12.2019 20:16 2,5 C 2,2 C 1,1 C 80 % 1036,4 hPa 0,0 l/m 0 min 0 min 0 W/m 16,1 km/h (3 Bft) 93,48 %
29.12.2019 20:18 2,5 C 2,2 C 1,1 C 80 % 1036,4 hPa 0,0 l/m 0 min 0 min 0 W/m 16,1 km/h (3 Bft) 95,74 %
29.12.2019 20:20 2,5 C 2,2 C 1,1 C 81 % 1036,4 hPa 0,0 l/m 0 min 0 min 0 W/m 22,5 km/h (4 Bft) 93,62 %
29.12.2019 20:22 2,5 C 2,2 C 1,1 C 81 % 1036,4 hPa 0,0 l/m 0 min 0 min 0 W/m 12,9 km/h (3 Bft) 93,62 %
29.12.2019 20:24 2,5 C 2,2 C 1,1 C 81 % 1036,4 hPa 0,0 l/m 0 min 0 min 0 W/m 19,3 km/h (3 Bft) 95,74 %
29.12.2019 20:26 2,5 C 2,2 C 1,1 C 81 % 1036,4 hPa 0,0 l/m 0 min 0 min 0 W/m 19,3 km/h (3 Bft) 95,65 %
29.12.2019 20:28 2,6 C 2,2 C 1,1 C 81 % 1036,4 hPa 0,0 l/m 0 min 0 min 0 W/m 16,1 km/h (3 Bft) 93,62 %
29.12.2019 20:30 2,5 C 2,2 C 1,1 C 80 % 1036,4 hPa 0,0 l/m 0 min 0 min 0 W/m 19,3 km/h (3 Bft) 93,62 %
29.12.2019 20:32 2,5 C 2,2 C 1,1 C 80 % 1036,3 hPa 0,0 l/m 0 min 0 min 0 W/m 25,7 km/h (4 Bft) 93,62 %
29.12.2019 20:34 2,6 C 1,7 C 1,1 C 80 % 1036,4 hPa 0,0 l/m 0 min 0 min 0 W/m 22,5 km/h (4 Bft) 95,74 %
29.12.2019 20:36 2,6 C 1,7 C 1,1 C 80 % 1036,3 hPa 0,0 l/m 0 min 0 min 0 W/m 19,3 km/h (3 Bft) 95,74 %
29.12.2019 20:38 2,5 C 1,7 C 1,1 C 80 % 1036,3 hPa 0,0 l/m 0 min 0 min 0 W/m 19,3 km/h (3 Bft) 87,23 %
29.12.2019 20:40 2,5 C 1,7 C 1,1 C 80 % 1036,3 hPa 0,0 l/m 0 min 0 min 0 W/m 19,3 km/h (3 Bft) 60,87 %
29.12.2019 20:42 2,5 C 1,7 C 1,1 C 81 % 1036,3 hPa 0,0 l/m 0 min 0 min 0 W/m 16,1 km/h (3 Bft) 95,74 %
29.12.2019 20:44 2,5 C 1,7 C 1,1 C 81 % 1036,3 hPa 0,0 l/m 0 min 0 min 0 W/m 12,9 km/h (3 Bft) 95,74 %
29.12.2019 20:46 2,5 C 1,7 C 1,1 C 81 % 1036,3 hPa 0,0 l/m 0 min 0 min 0 W/m 16,1 km/h (3 Bft) 93,62 %
29.12.2019 20:48 2,4 C 1,7 C 1,1 C 81 % 1036,3 hPa 0,0 l/m 0 min 0 min 0 W/m 16,1 km/h (3 Bft) 95,74 %
29.12.2019 20:50 2,4 C 1,7 C 1,1 C 81 % 1036,2 hPa 0,0 l/m 0 min 0 min 0 W/m 6,4 km/h (2 Bft) 97,83 %
29.12.2019 20:52 2,4 C 1,7 C 0,6 C 81 % 1036,2 hPa 0,0 l/m 0 min 0 min 0 W/m 12,9 km/h (3 Bft) 97,87 %
29.12.2019 20:54 2,4 C 1,7 C 0,6 C 81 % 1036,2 hPa 0,0 l/m 0 min 0 min 0 W/m 16,1 km/h (3 Bft) 97,87 %
29.12.2019 20:56 2,4 C 1,7 C 0,6 C 81 % 1036,2 hPa 0,0 l/m 0 min 0 min 0 W/m 16,1 km/h (3 Bft) 97,87 %
29.12.2019 20:58 2,3 C 1,7 C 0,6 C 81 % 1036,2 hPa 0,0 l/m 0 min 0 min 0 W/m 12,9 km/h (3 Bft) 97,87 %
29.12.2019 21:00 2,3 C 1,1 C 0,6 C 81 % 1036,3 hPa 0,0 l/m 0 min 0 min 0 W/m 12,9 km/h (3 Bft) 100,00 %
29.12.2019 21:02 2,3 C 1,1 C 0,6 C 81 % 1036,3 hPa 0,0 l/m 0 min 0 min 0 W/m 12,9 km/h (3 Bft) 100,00 %
29.12.2019 21:04 2,3 C 1,1 C 0,6 C 81 % 1036,2 hPa 0,0 l/m 0 min 0 min 0 W/m 12,9 km/h (3 Bft) 100,00 %
29.12.2019 21:06 2,2 C 1,1 C 0,6 C 81 % 1036,2 hPa 0,0 l/m 0 min 0 min 0 W/m 12,9 km/h (3 Bft) 97,87 %
29.12.2019 21:08 2,2 C 1,1 C 0,6 C 81 % 1036,2 hPa 0,0 l/m 0 min 0 min 0 W/m 16,1 km/h (3 Bft) 97,87 %
29.12.2019 21:10 2,2 C 1,1 C 0,6 C 81 % 1036,2 hPa 0,0 l/m 0 min 0 min 0 W/m 12,9 km/h (3 Bft) 100,00 %
29.12.2019 21:12 2,2 C 1,1 C 0,6 C 81 % 1036,2 hPa 0,0 l/m 0 min 0 min 0 W/m 12,9 km/h (3 Bft) 95,74 %
29.12.2019 21:14 2,2 C 1,1 C 0,6 C 81 % 1036,1 hPa 0,0 l/m 0 min 0 min 0 W/m 16,1 km/h (3 Bft) 97,83 %
29.12.2019 21:16 2,1 C 1,1 C 0,6 C 81 % 1036,1 hPa 0,0 l/m 0 min 0 min 0 W/m 19,3 km/h (3 Bft) 97,87 %
29.12.2019 21:18 2,1 C 1,1 C 0,6 C 81 % 1036,0 hPa 0,0 l/m 0 min 0 min 0 W/m 12,9 km/h (3 Bft) 97,87 %
29.12.2019 21:20 2,1 C 1,1 C 0,6 C 82 % 1036,0 hPa 0,0 l/m 0 min 0 min 0 W/m 6,4 km/h (2 Bft) 97,87 %
29.12.2019 21:22 2,1 C 1,1 C 0,6 C 82 % 1036,0 hPa 0,0 l/m 0 min 0 min 0 W/m 19,3 km/h (3 Bft) 97,87 %
29.12.2019 21:24 2,1 C 1,1 C 0,6 C 82 % 1035,9 hPa 0,0 l/m 0 min 0 min 0 W/m 22,5 km/h (4 Bft) 97,87 %
29.12.2019 21:26 2,1 C 1,1 C 0,6 C 82 % 1035,9 hPa 0,0 l/m 0 min 0 min 0 W/m 22,5 km/h (4 Bft) 97,83 %
29.12.2019 21:28 2,0 C 1,1 C 0,6 C 82 % 1036,0 hPa 0,0 l/m 0 min 0 min 0 W/m 19,3 km/h (3 Bft) 95,74 %
29.12.2019 21:30 2,0 C 1,1 C 0,6 C 82 % 1035,9 hPa 0,0 l/m 0 min 0 min 0 W/m 22,5 km/h (4 Bft) 97,87 %
29.12.2019 21:32 2,0 C 1,1 C 0,6 C 82 % 1035,8 hPa 0,0 l/m 0 min 0 min 0 W/m 12,9 km/h (3 Bft) 97,87 %
29.12.2019 21:34 2,0 C 1,1 C 0,6 C 82 % 1035,8 hPa 0,0 l/m 0 min 0 min 0 W/m 29,0 km/h (5 Bft) 97,87 %
29.12.2019 21:36 2,0 C 1,7 C 0,6 C 82 % 1035,8 hPa 0,0 l/m 0 min 0 min 0 W/m 19,3 km/h (3 Bft) 97,83 %
29.12.2019 21:38 2,0 C 1,7 C 0,6 C 82 % 1035,8 hPa 0,0 l/m 0 min 0 min 0 W/m 22,5 km/h (4 Bft) 97,87 %
29.12.2019 21:40 2,0 C 1,7 C 0,6 C 82 % 1035,8 hPa 0,0 l/m 0 min 0 min 0 W/m 12,9 km/h (3 Bft) 97,87 %
29.12.2019 21:42 2,0 C 1,1 C 0,6 C 82 % 1035,7 hPa 0,0 l/m 0 min 0 min 0 W/m 12,9 km/h (3 Bft) 97,87 %
29.12.2019 21:44 2,1 C 1,1 C 0,6 C 82 % 1035,7 hPa 0,0 l/m 0 min 0 min 0 W/m 19,3 km/h (3 Bft) 97,87 %
29.12.2019 21:46 2,0 C 1,1 C 0,6 C 82 % 1035,8 hPa 0,0 l/m 0 min 0 min 0 W/m 25,7 km/h (4 Bft) 97,87 %
29.12.2019 21:48 2,1 C 1,1 C 0,6 C 82 % 1035,8 hPa 0,0 l/m 0 min 0 min 0 W/m 16,1 km/h (3 Bft) 95,65 %
29.12.2019 21:50 2,1 C 1,1 C 0,6 C 82 % 1035,8 hPa 0,0 l/m 0 min 0 min 0 W/m 19,3 km/h (3 Bft) 97,87 %
29.12.2019 21:52 2,1 C 1,1 C 0,6 C 82 % 1035,8 hPa 0,0 l/m 0 min 0 min 0 W/m 22,5 km/h (4 Bft) 97,87 %
29.12.2019 21:54 2,1 C 1,7 C 0,6 C 82 % 1035,8 hPa 0,0 l/m 0 min 0 min 0 W/m 16,1 km/h (3 Bft) 97,87 %
29.12.2019 21:56 2,1 C 1,1 C 0,6 C 82 % 1035,8 hPa 0,0 l/m 0 min 0 min 0 W/m 19,3 km/h (3 Bft) 97,87 %
29.12.2019 21:58 2,1 C 1,1 C 0,6 C 82 % 1035,7 hPa 0,0 l/m 0 min 0 min 0 W/m 29,0 km/h (5 Bft) 97,87 %
29.12.2019 22:00 2,1 C 1,1 C 0,6 C 82 % 1035,6 hPa 0,0 l/m 0 min 0 min 0 W/m 19,3 km/h (3 Bft) 97,83 %
29.12.2019 22:02 2,1 C 1,1 C 0,6 C 82 % 1035,7 hPa 0,0 l/m 0 min 0 min 0 W/m 25,7 km/h (4 Bft) 95,74 %
29.12.2019 22:04 2,1 C 1,7 C 0,6 C 82 % 1035,7 hPa 0,0 l/m 0 min 0 min 0 W/m 25,7 km/h (4 Bft) 97,87 %
29.12.2019 22:06 2,1 C 1,1 C 0,6 C 82 % 1035,7 hPa 0,0 l/m 0 min 0 min 0 W/m 25,7 km/h (4 Bft) 97,87 %
29.12.2019 22:08 2,1 C 1,1 C 0,6 C 82 % 1035,6 hPa 0,0 l/m 0 min 0 min 0 W/m 22,5 km/h (4 Bft) 97,87 %
29.12.2019 22:10 2,1 C 1,1 C 0,6 C 82 % 1035,6 hPa 0,0 l/m 0 min 0 min 0 W/m 16,1 km/h (3 Bft) 97,83 %
29.12.2019 22:12 2,1 C 1,1 C 0,6 C 82 % 1035,6 hPa 0,0 l/m 0 min 0 min 0 W/m 22,5 km/h (4 Bft) 97,87 %
29.12.2019 22:14 2,0 C 1,1 C 0,6 C 82 % 1035,6 hPa 0,0 l/m 0 min 0 min 0 W/m 38,6 km/h (5 Bft) 97,87 %
29.12.2019 22:16 2,0 C 1,1 C 0,6 C 82 % 1035,6 hPa 0,0 l/m 0 min 0 min 0 W/m 25,7 km/h (4 Bft) 97,87 %
29.12.2019 22:18 2,1 C 1,1 C 0,6 C 82 % 1035,6 hPa 0,0 l/m 0 min 0 min 0 W/m 22,5 km/h (4 Bft) 100,00 %
29.12.2019 22:20 2,0 C 1,1 C 0,6 C 82 % 1035,5 hPa 0,0 l/m 0 min 0 min 0 W/m 22,5 km/h (4 Bft) 100,00 %
29.12.2019 22:22 2,0 C 1,1 C 0,6 C 82 % 1035,5 hPa 0,0 l/m 0 min 0 min 0 W/m 19,3 km/h (3 Bft) 100,00 %
29.12.2019 22:24 2,0 C 1,1 C 0,6 C 82 % 1035,6 hPa 0,0 l/m 0 min 0 min 0 W/m 19,3 km/h (3 Bft) 97,83 %
29.12.2019 22:26 2,0 C 1,1 C 0,6 C 82 % 1035,6 hPa 0,0 l/m 0 min 0 min 0 W/m 16,1 km/h (3 Bft) 95,74 %
29.12.2019 22:28 2,0 C 1,1 C 0,6 C 82 % 1035,6 hPa 0,0 l/m 0 min 0 min 0 W/m 16,1 km/h (3 Bft) 95,74 %
29.12.2019 22:30 1,9 C 1,1 C 0,6 C 82 % 1035,6 hPa 0,0 l/m 0 min 0 min 0 W/m 16,1 km/h (3 Bft) 100,00 %
29.12.2019 22:32 1,9 C 1,1 C 0,6 C 82 % 1035,6 hPa 0,0 l/m 0 min 0 min 0 W/m 19,3 km/h (3 Bft) 97,87 %
29.12.2019 22:34 1,9 C 1,1 C 0,6 C 82 % 1035,6 hPa 0,0 l/m 0 min 0 min 0 W/m 19,3 km/h (3 Bft) 100,00 %
29.12.2019 22:36 1,9 C 1,1 C 0,6 C 82 % 1035,6 hPa 0,0 l/m 0 min 0 min 0 W/m 19,3 km/h (3 Bft) 97,87 %
29.12.2019 22:38 1,9 C 1,1 C 0,6 C 83 % 1035,6 hPa 0,0 l/m 0 min 0 min 0 W/m 6,4 km/h (2 Bft) 97,87 %
29.12.2019 22:40 1,8 C 1,1 C 0,6 C 83 % 1035,7 hPa 0,0 l/m 0 min 0 min 0 W/m 19,3 km/h (3 Bft) 97,87 %
29.12.2019 22:42 1,8 C 1,1 C 0,6 C 83 % 1035,6 hPa 0,0 l/m 0 min 0 min 0 W/m 16,1 km/h (3 Bft) 100,00 %
29.12.2019 22:44 1,8 C 1,1 C 0,6 C 83 % 1035,6 hPa 0,0 l/m 0 min 0 min 0 W/m 9,7 km/h (2 Bft) 97,87 %
29.12.2019 22:46 1,8 C 1,1 C 0,6 C 83 % 1035,6 hPa 0,0 l/m 0 min 0 min 0 W/m 6,4 km/h (2 Bft) 97,83 %
29.12.2019 22:48 1,8 C 1,1 C 0,6 C 83 % 1035,5 hPa 0,0 l/m 0 min 0 min 0 W/m 12,9 km/h (3 Bft) 95,74 %
29.12.2019 22:50 1,8 C 1,1 C 0,6 C 83 % 1035,5 hPa 0,0 l/m 0 min 0 min 0 W/m 22,5 km/h (4 Bft) 97,87 %
29.12.2019 22:52 1,8 C 1,1 C 0,6 C 83 % 1035,4 hPa 0,0 l/m 0 min 0 min 0 W/m 16,1 km/h (3 Bft) 97,87 %
29.12.2019 22:54 1,8 C 1,1 C 0,6 C 83 % 1035,5 hPa 0,0 l/m 0 min 0 min 0 W/m 16,1 km/h (3 Bft) 97,87 %
29.12.2019 22:56 1,8 C 1,1 C 0,6 C 83 % 1035,4 hPa 0,0 l/m 0 min 0 min 0 W/m 19,3 km/h (3 Bft) 97,87 %
29.12.2019 22:58 1,7 C 1,1 C 0,6 C 83 % 1035,5 hPa 0,0 l/m 0 min 0 min 0 W/m 12,9 km/h (3 Bft) 97,83 %
29.12.2019 23:00 1,7 C 1,1 C 0,6 C 83 % 1035,4 hPa 0,0 l/m 0 min 0 min 0 W/m 22,5 km/h (4 Bft) 97,87 %
29.12.2019 23:02 1,7 C 1,1 C 0,6 C 83 % 1035,4 hPa 0,0 l/m 0 min 0 min 0 W/m 19,3 km/h (3 Bft) 95,74 %
29.12.2019 23:04 1,7 C 1,1 C 0,6 C 83 % 1035,4 hPa 0,0 l/m 0 min 0 min 0 W/m 19,3 km/h (3 Bft) 95,74 %
29.12.2019 23:06 1,7 C 1,1 C 0,6 C 83 % 1035,4 hPa 0,0 l/m 0 min 0 min 0 W/m 19,3 km/h (3 Bft) 93,62 %
29.12.2019 23:08 1,7 C 1,1 C 0,6 C 83 % 1035,4 hPa 0,0 l/m 0 min 0 min 0 W/m 16,1 km/h (3 Bft) 93,62 %
29.12.2019 23:10 1,7 C 1,1 C 0,6 C 83 % 1035,5 hPa 0,0 l/m 0 min 0 min 0 W/m 16,1 km/h (3 Bft) 95,65 %
29.12.2019 23:12 1,7 C 1,1 C 0,6 C 83 % 1035,4 hPa 0,0 l/m 0 min 0 min 0 W/m 6,4 km/h (2 Bft) 93,62 %
29.12.2019 23:14 1,7 C 1,1 C 0,6 C 83 % 1035,4 hPa 0,0 l/m 0 min 0 min 0 W/m 16,1 km/h (3 Bft) 53,49 %
29.12.2019 23:16 1,7 C 1,1 C 0,6 C 83 % 1035,4 hPa 0,0 l/m 0 min 0 min 0 W/m 16,1 km/h (3 Bft) 95,74 %
29.12.2019 23:18 1,7 C 1,1 C 0,0 C 83 % 1035,4 hPa 0,0 l/m 0 min 0 min 0 W/m 12,9 km/h (3 Bft) 93,62 %
29.12.2019 23:20 1,7 C 1,1 C 0,0 C 83 % 1035,5 hPa 0,0 l/m 0 min 0 min 0 W/m 16,1 km/h (3 Bft) 95,74 %
29.12.2019 23:22 1,6 C 1,1 C 0,6 C 83 % 1035,5 hPa 0,0 l/m 0 min 0 min 0 W/m 12,9 km/h (3 Bft) 95,65 %
29.12.2019 23:24 1,6 C 1,1 C 0,6 C 83 % 1035,5 hPa 0,0 l/m 0 min 0 min 0 W/m 12,9 km/h (3 Bft) 95,74 %
29.12.2019 23:26 1,6 C 1,1 C 0,0 C 83 % 1035,5 hPa 0,0 l/m 0 min 0 min 0 W/m 12,9 km/h (3 Bft) 93,62 %
29.12.2019 23:28 1,6 C 1,1 C 0,0 C 83 % 1035,5 hPa 0,0 l/m 0 min 0 min 0 W/m 16,1 km/h (3 Bft) 95,74 %
29.12.2019 23:30 1,6 C 1,1 C 0,6 C 83 % 1035,5 hPa 0,0 l/m 0 min 0 min 0 W/m 19,3 km/h (3 Bft) 97,87 %
29.12.2019 23:32 1,6 C 1,1 C 0,0 C 83 % 1035,5 hPa 0,0 l/m 0 min 0 min 0 W/m 12,9 km/h (3 Bft) 97,83 %
29.12.2019 23:34 1,6 C 1,1 C 0,0 C 83 % 1035,4 hPa 0,0 l/m 0 min 0 min 0 W/m 16,1 km/h (3 Bft) 97,87 %
29.12.2019 23:36 1,6 C 1,1 C 0,0 C 83 % 1035,4 hPa 0,0 l/m 0 min 0 min 0 W/m 16,1 km/h (3 Bft) 97,87 %
29.12.2019 23:38 1,6 C 1,1 C 0,6 C 83 % 1035,4 hPa 0,0 l/m 0 min 0 min 0 W/m 22,5 km/h (4 Bft) 97,87 %
29.12.2019 23:40 1,6 C 1,1 C 0,6 C 83 % 1035,4 hPa 0,0 l/m 0 min 0 min 0 W/m 16,1 km/h (3 Bft) 97,87 %
29.12.2019 23:42 1,6 C 1,1 C 0,6 C 83 % 1035,3 hPa 0,0 l/m 0 min 0 min 0 W/m 12,9 km/h (3 Bft) 95,74 %
29.12.2019 23:44 1,6 C 1,1 C 0,6 C 83 % 1035,4 hPa 0,0 l/m 0 min 0 min 0 W/m 6,4 km/h (2 Bft) 95,65 %
29.12.2019 23:46 1,6 C 1,1 C 0,6 C 82 % 1035,4 hPa 0,0 l/m 0 min 0 min 0 W/m 25,7 km/h (4 Bft) 97,87 %
29.12.2019 23:48 1,6 C 1,1 C 0,6 C 82 % 1035,4 hPa 0,0 l/m 0 min 0 min 0 W/m 19,3 km/h (3 Bft) 100,00 %
29.12.2019 23:50 1,6 C 1,1 C 0,6 C 82 % 1035,4 hPa 0,0 l/m 0 min 0 min 0 W/m 16,1 km/h (3 Bft) 100,00 %
29.12.2019 23:52 1,6 C 1,1 C 0,6 C 82 % 1035,3 hPa 0,0 l/m 0 min 0 min 0 W/m 19,3 km/h (3 Bft) 100,00 %
29.12.2019 23:54 1,7 C 1,1 C 0,6 C 82 % 1035,3 hPa 0,0 l/m 0 min 0 min 0 W/m 16,1 km/h (3 Bft) 97,87 %
29.12.2019 23:56 1,6 C 1,1 C 0,6 C 82 % 1035,3 hPa 0,0 l/m 0 min 0 min 0 W/m 12,9 km/h (3 Bft) 100,00 %
29.12.2019 23:58 1,6 C 1,1 C 0,6 C 82 % 1035,3 hPa 0,0 l/m 0 min 0 min 0 W/m 12,9 km/h (3 Bft) 100,00 %
_ Min-Zeit 06:54 05:16 05:06 14:30 23:42 - - - - 00:12 11:58
Minimum _ -0,3 C -1,1 C -1,7 C 80 % 1035,3 hPa - - - - 0,0 km/h (0 Bft) 30,00 %
_ Max-Zeit 14:44 13:06 13:40 02:50 01:00 00:00 11:06 00:00 13:18 22:14 00:38
Maximum _ 3,3 C 3,3 C 2,8 C 90 % 1039,8 hPa 0,0 l/m 2 min 0 min 150 W/m 38,6 km/h
O-SO (5 Bft)
100,00 %
Durchschnitt _ 1,4 C 1,0 C 0,3 C 85 % 1037,8 hPa #0,0 l/m #8 min. #0 min. 68 W/m 13,2 km/h (3 Bft) 96,86 %
© 2019 W. Hausmann